<?xml version='1.0' encoding='UTF-8'?><gpx version="1.1" creator="JPX - https://github.com/jenetics/jpx" xmlns="http://www.topografix.com/GPX/1/1"><trk><trkseg><trkpt lat="45.24392776950745" lon="9.022684281457204"><ele>81.0</ele><time>2026-04-06T15:49:36Z</time></trkpt><trkpt lat="45.24400649108059" lon="9.022685936811909"><ele>81.0</ele><time>2026-04-06T15:49:38.999Z</time></trkpt><trkpt lat="45.244081707603975" lon="9.022697347060308"><ele>81.0</ele><time>2026-04-06T15:49:41.999Z</time></trkpt><trkpt lat="45.24415196390265" lon="9.022702831473309"><ele>81.0</ele><time>2026-04-06T15:49:44.999Z</time></trkpt><trkpt lat="45.24423373850284" lon="9.02270427137428"><ele>81.0</ele><time>2026-04-06T15:49:47.999Z</time></trkpt><trkpt lat="45.24431367657416" lon="9.022704390601671"><ele>81.0</ele><time>2026-04-06T15:49:50.999Z</time></trkpt><trkpt lat="45.24438549971222" lon="9.022718134160144"><ele>81.0</ele><time>2026-04-06T15:49:53.999Z</time></trkpt><trkpt lat="45.244461336585594" lon="9.022717546756107"><ele>81.0</ele><time>2026-04-06T15:49:56.999Z</time></trkpt><trkpt lat="45.24453462073481" lon="9.022723311343661"><ele>81.0</ele><time>2026-04-06T15:49:59.999Z</time></trkpt><trkpt lat="45.24460097349375" lon="9.022735400226725"><ele>81.0</ele><time>2026-04-06T15:50:02.999Z</time></trkpt><trkpt lat="45.2446699597469" lon="9.022733622061342"><ele>81.0</ele><time>2026-04-06T15:50:05.999Z</time></trkpt><trkpt lat="45.24474261080432" lon="9.022739299427796"><ele>81.0</ele><time>2026-04-06T15:50:08.999Z</time></trkpt><trkpt lat="45.244816507666" lon="9.022745463741794"><ele>81.0</ele><time>2026-04-06T15:50:11.999Z</time></trkpt><trkpt lat="45.244890378020855" lon="9.02274754200467"><ele>81.33333333333333</ele><time>2026-04-06T15:50:14.999Z</time></trkpt><trkpt lat="45.244973539869015" lon="9.022749184760881"><ele>81.66666666666667</ele><time>2026-04-06T15:50:17.999Z</time></trkpt><trkpt lat="45.24506125961837" lon="9.022756367533788"><ele>82.0</ele><time>2026-04-06T15:50:20.999Z</time></trkpt><trkpt lat="45.245129032283266" lon="9.022764733440242"><ele>82.33333333333334</ele><time>2026-04-06T15:50:22.999Z</time></trkpt><trkpt lat="45.245204028223036" lon="9.022763019073619"><ele>82.66666666666667</ele><time>2026-04-06T15:50:24.999Z</time></trkpt><trkpt lat="45.245281206717" lon="9.02276609357504"><ele>83.0</ele><time>2026-04-06T15:50:26.999Z</time></trkpt><trkpt lat="45.245362067127665" lon="9.022774504420536"><ele>83.0</ele><time>2026-04-06T15:50:28.999Z</time></trkpt><trkpt lat="45.24544666091866" lon="9.022778618991262"><ele>83.0</ele><time>2026-04-06T15:50:30.999Z</time></trkpt><trkpt lat="45.24552931661212" lon="9.02278260141098"><ele>83.0</ele><time>2026-04-06T15:50:33Z</time></trkpt><trkpt lat="45.24561213619798" lon="9.022787518122284"><ele>83.0</ele><time>2026-04-06T15:50:35Z</time></trkpt><trkpt lat="45.24569437801621" lon="9.022772900350155"><ele>83.0</ele><time>2026-04-06T15:50:37Z</time></trkpt><trkpt lat="45.24575962766734" lon="9.02279292993653"><ele>83.0</ele><time>2026-04-06T15:50:39Z</time></trkpt><trkpt lat="45.24582690495881" lon="9.022806919174627"><ele>82.80000000000001</ele><time>2026-04-06T15:50:41Z</time></trkpt><trkpt lat="45.24590477404648" lon="9.022809382585372"><ele>82.6</ele><time>2026-04-06T15:50:43Z</time></trkpt><trkpt lat="45.245991537168955" lon="9.022817055424788"><ele>82.4</ele><time>2026-04-06T15:50:45Z</time></trkpt><trkpt lat="45.2460835060856" lon="9.022820224276414"><ele>82.19999999999999</ele><time>2026-04-06T15:50:47Z</time></trkpt><trkpt lat="45.246178998426046" lon="9.02282027335472"><ele>82.0</ele><time>2026-04-06T15:50:49Z</time></trkpt><trkpt lat="45.246276598803895" lon="9.022828839107273"><ele>82.0</ele><time>2026-04-06T15:50:51Z</time></trkpt><trkpt lat="45.2463754553992" lon="9.022835626341294"><ele>82.0</ele><time>2026-04-06T15:50:53Z</time></trkpt><trkpt lat="45.24647489000614" lon="9.02284874831739"><ele>82.0</ele><time>2026-04-06T15:50:55Z</time></trkpt><trkpt lat="45.2465736874991" lon="9.022859434401266"><ele>82.0</ele><time>2026-04-06T15:50:57Z</time></trkpt><trkpt lat="45.246668436077584" lon="9.022863030473792"><ele>82.0</ele><time>2026-04-06T15:50:59Z</time></trkpt><trkpt lat="45.246767261861265" lon="9.02287579833298"><ele>82.39999999999999</ele><time>2026-04-06T15:51:01Z</time></trkpt><trkpt lat="45.24686639319398" lon="9.022873027363849"><ele>82.8</ele><time>2026-04-06T15:51:03Z</time></trkpt><trkpt lat="45.24696683631869" lon="9.02287961264193"><ele>83.2</ele><time>2026-04-06T15:51:05Z</time></trkpt><trkpt lat="45.247059417417525" lon="9.02288803252338"><ele>83.6</ele><time>2026-04-06T15:51:07Z</time></trkpt><trkpt lat="45.2471449172671" lon="9.022892348578926"><ele>84.0</ele><time>2026-04-06T15:51:09Z</time></trkpt><trkpt lat="45.24722698865874" lon="9.022898186709572"><ele>85.0</ele><time>2026-04-06T15:51:11Z</time></trkpt><trkpt lat="45.24730569383674" lon="9.022904889913189"><ele>86.0</ele><time>2026-04-06T15:51:13Z</time></trkpt><trkpt lat="45.24738065802001" lon="9.02291213765763"><ele>87.0</ele><time>2026-04-06T15:51:15Z</time></trkpt><trkpt lat="45.247455107214954" lon="9.022920738327954"><ele>88.0</ele><time>2026-04-06T15:51:17Z</time></trkpt><trkpt lat="45.24752973390674" lon="9.022922342427513"><ele>89.0</ele><time>2026-04-06T15:51:19Z</time></trkpt><trkpt lat="45.24760671715082" lon="9.022929195982757"><ele>90.0</ele><time>2026-04-06T15:51:21Z</time></trkpt><trkpt lat="45.24768227792564" lon="9.022934691184782"><ele>90.0</ele><time>2026-04-06T15:51:23Z</time></trkpt><trkpt lat="45.2477629926983" lon="9.022939507475908"><ele>90.0</ele><time>2026-04-06T15:51:25Z</time></trkpt><trkpt lat="45.247838992583944" lon="9.022947037561948"><ele>90.0</ele><time>2026-04-06T15:51:27Z</time></trkpt><trkpt lat="45.24791005113218" lon="9.022953700942992"><ele>90.0</ele><time>2026-04-06T15:51:29Z</time></trkpt><trkpt lat="45.247977505987286" lon="9.022966147179224"><ele>90.0</ele><time>2026-04-06T15:51:31Z</time></trkpt><trkpt lat="45.248049304420846" lon="9.022973442339865"><ele>90.0</ele><time>2026-04-06T15:51:33Z</time></trkpt><trkpt lat="45.24812431547938" lon="9.022978279790108"><ele>90.0</ele><time>2026-04-06T15:51:35Z</time></trkpt><trkpt lat="45.24820281479651" lon="9.02298028266915"><ele>90.2</ele><time>2026-04-06T15:51:37Z</time></trkpt><trkpt lat="45.248291189064894" lon="9.022982884160745"><ele>90.4</ele><time>2026-04-06T15:51:39Z</time></trkpt><trkpt lat="45.2483694198136" lon="9.022983010663994"><ele>90.6</ele><time>2026-04-06T15:51:41Z</time></trkpt><trkpt lat="45.24846072697709" lon="9.022990986857323"><ele>90.8</ele><time>2026-04-06T15:51:43Z</time></trkpt><trkpt lat="45.248559036973255" lon="9.022999349345758"><ele>91.0</ele><time>2026-04-06T15:51:45Z</time></trkpt><trkpt lat="45.24865481367421" lon="9.02300469593168"><ele>91.0</ele><time>2026-04-06T15:51:47Z</time></trkpt><trkpt lat="45.24875299920322" lon="9.023008677357096"><ele>91.0</ele><time>2026-04-06T15:51:49Z</time></trkpt><trkpt lat="45.24885967738731" lon="9.023022158822078"><ele>91.0</ele><time>2026-04-06T15:51:51Z</time></trkpt><trkpt lat="45.24896889643274" lon="9.02303367359475"><ele>91.0</ele><time>2026-04-06T15:51:53Z</time></trkpt><trkpt lat="45.24908230236522" lon="9.023040098087638"><ele>91.0</ele><time>2026-04-06T15:51:55Z</time></trkpt><trkpt lat="45.24919831480271" lon="9.0230490043045"><ele>91.0</ele><time>2026-04-06T15:51:57Z</time></trkpt><trkpt lat="45.24931471066362" lon="9.02305698856891"><ele>91.0</ele><time>2026-04-06T15:51:59Z</time></trkpt><trkpt lat="45.249434594307814" lon="9.023063779932638"><ele>91.0</ele><time>2026-04-06T15:52:01Z</time></trkpt><trkpt lat="45.24955446836099" lon="9.023074160914836"><ele>91.0</ele><time>2026-04-06T15:52:02.999Z</time></trkpt><trkpt lat="45.24967433468941" lon="9.023083152674683"><ele>90.5</ele><time>2026-04-06T15:52:04.999Z</time></trkpt><trkpt lat="45.24979573316941" lon="9.023093781954568"><ele>90.0</ele><time>2026-04-06T15:52:06.999Z</time></trkpt><trkpt lat="45.24991613881569" lon="9.02310255126379"><ele>89.5</ele><time>2026-04-06T15:52:08.999Z</time></trkpt><trkpt lat="45.25003932953227" lon="9.023119693222547"><ele>89.0</ele><time>2026-04-06T15:52:10.999Z</time></trkpt><trkpt lat="45.2501580737393" lon="9.02312465006772"><ele>89.0</ele><time>2026-04-06T15:52:12.999Z</time></trkpt><trkpt lat="45.25028091377667" lon="9.023132173384745"><ele>89.0</ele><time>2026-04-06T15:52:14.999Z</time></trkpt><trkpt lat="45.2504049322349" lon="9.023139965516396"><ele>89.0</ele><time>2026-04-06T15:52:16.999Z</time></trkpt><trkpt lat="45.2505264245112" lon="9.023152263214769"><ele>89.0</ele><time>2026-04-06T15:52:18.999Z</time></trkpt><trkpt lat="45.25064900655532" lon="9.023158750315243"><ele>88.6</ele><time>2026-04-06T15:52:20.999Z</time></trkpt><trkpt lat="45.25076113011996" lon="9.023168277310857"><ele>88.2</ele><time>2026-04-06T15:52:22.999Z</time></trkpt><trkpt lat="45.250860612437776" lon="9.023184551205013"><ele>87.8</ele><time>2026-04-06T15:52:24.999Z</time></trkpt><trkpt lat="45.2509614585341" lon="9.02319225491516"><ele>87.39999999999999</ele><time>2026-04-06T15:52:26.999Z</time></trkpt><trkpt lat="45.251063714377736" lon="9.023200639167698"><ele>87.0</ele><time>2026-04-06T15:52:28.999Z</time></trkpt><trkpt lat="45.25116479842105" lon="9.023200057793455"><ele>87.0</ele><time>2026-04-06T15:52:30.999Z</time></trkpt><trkpt lat="45.25125900895966" lon="9.02319536277345"><ele>87.0</ele><time>2026-04-06T15:52:32.999Z</time></trkpt><trkpt lat="45.25135752985035" lon="9.023203124651545"><ele>87.0</ele><time>2026-04-06T15:52:34.999Z</time></trkpt><trkpt lat="45.251450492213614" lon="9.023230202370625"><ele>87.0</ele><time>2026-04-06T15:52:37Z</time></trkpt><trkpt lat="45.251554660361464" lon="9.02323773413617"><ele>87.0</ele><time>2026-04-06T15:52:39Z</time></trkpt><trkpt lat="45.251663687715336" lon="9.02322505681376"><ele>87.25</ele><time>2026-04-06T15:52:41Z</time></trkpt><trkpt lat="45.25177728817943" lon="9.023239887576672"><ele>87.5</ele><time>2026-04-06T15:52:43Z</time></trkpt><trkpt lat="45.25189264674287" lon="9.023243677945294"><ele>87.75</ele><time>2026-04-06T15:52:45Z</time></trkpt><trkpt lat="45.25201371648193" lon="9.023254072265818"><ele>88.0</ele><time>2026-04-06T15:52:47Z</time></trkpt><trkpt lat="45.25213027214588" lon="9.023258977936129"><ele>88.0</ele><time>2026-04-06T15:52:49Z</time></trkpt><trkpt lat="45.25225086606327" lon="9.023267416677598"><ele>88.0</ele><time>2026-04-06T15:52:51Z</time></trkpt><trkpt lat="45.25236918548769" lon="9.0232767989076"><ele>88.0</ele><time>2026-04-06T15:52:52.999Z</time></trkpt><trkpt lat="45.25248728786156" lon="9.023286530707894"><ele>88.0</ele><time>2026-04-06T15:52:54.999Z</time></trkpt><trkpt lat="45.25260294848442" lon="9.023296710156862"><ele>88.0</ele><time>2026-04-06T15:52:56.999Z</time></trkpt><trkpt lat="45.25271983658754" lon="9.023305530479972"><ele>88.0</ele><time>2026-04-06T15:52:58.999Z</time></trkpt><trkpt lat="45.25283469747894" lon="9.023312970678731"><ele>88.0</ele><time>2026-04-06T15:53:00.999Z</time></trkpt><trkpt lat="45.25294363753169" lon="9.023320575753504"><ele>88.0</ele><time>2026-04-06T15:53:02.999Z</time></trkpt><trkpt lat="45.25305028559618" lon="9.023333380809186"><ele>88.0</ele><time>2026-04-06T15:53:04.999Z</time></trkpt><trkpt lat="45.25314605932015" lon="9.023345710980486"><ele>88.14285714285714</ele><time>2026-04-06T15:53:06.999Z</time></trkpt><trkpt lat="45.253233323705274" lon="9.023369566596218"><ele>88.28571428571428</ele><time>2026-04-06T15:53:08.999Z</time></trkpt><trkpt lat="45.25330874345806" lon="9.023370937750174"><ele>88.42857142857142</ele><time>2026-04-06T15:53:10.999Z</time></trkpt><trkpt lat="45.25336512086571" lon="9.02331455255098"><ele>88.57142857142857</ele><time>2026-04-06T15:53:12.999Z</time></trkpt><trkpt lat="45.25340675040742" lon="9.023237725987496"><ele>88.71428571428571</ele><time>2026-04-06T15:53:14.999Z</time></trkpt><trkpt lat="45.253449743211846" lon="9.02316325708639"><ele>88.85714285714285</ele><time>2026-04-06T15:53:16.999Z</time></trkpt><trkpt lat="45.25348995555781" lon="9.023083245302221"><ele>89.0</ele><time>2026-04-06T15:53:18.999Z</time></trkpt><trkpt lat="45.25352893400851" lon="9.022998904874763"><ele>89.0</ele><time>2026-04-06T15:53:20.999Z</time></trkpt><trkpt lat="45.25357180343895" lon="9.022924254347389"><ele>89.0</ele><time>2026-04-06T15:53:22.999Z</time></trkpt><trkpt lat="45.2536458390518" lon="9.022878908846893"><ele>89.0</ele><time>2026-04-06T15:53:24.999Z</time></trkpt><trkpt lat="45.253697744801514" lon="9.022790815658388"><ele>89.0</ele><time>2026-04-06T15:53:26.999Z</time></trkpt><trkpt lat="45.25374679063403" lon="9.022699215741127"><ele>89.0</ele><time>2026-04-06T15:53:28.999Z</time></trkpt><trkpt lat="45.25378921282568" lon="9.022613471263531"><ele>89.0</ele><time>2026-04-06T15:53:30.999Z</time></trkpt><trkpt lat="45.25383249094612" lon="9.022523976709058"><ele>88.99999999999999</ele><time>2026-04-06T15:53:32.999Z</time></trkpt><trkpt lat="45.253874613325344" lon="9.022434878072955"><ele>89.0</ele><time>2026-04-06T15:53:34.999Z</time></trkpt><trkpt lat="45.253905126608565" lon="9.022345111301078"><ele>89.0</ele><time>2026-04-06T15:53:36.999Z</time></trkpt><trkpt lat="45.25393983638897" lon="9.022261260410351"><ele>89.0</ele><time>2026-04-06T15:53:38.999Z</time></trkpt><trkpt lat="45.253989271610735" lon="9.022183352196373"><ele>89.0</ele><time>2026-04-06T15:53:40.999Z</time></trkpt><trkpt lat="45.25402853927124" lon="9.02209821926438"><ele>88.99999999999999</ele><time>2026-04-06T15:53:42.999Z</time></trkpt><trkpt lat="45.254066743866325" lon="9.02201628917987"><ele>89.0</ele><time>2026-04-06T15:53:44.999Z</time></trkpt><trkpt lat="45.25409445538457" lon="9.021932231585257"><ele>88.99999999999999</ele><time>2026-04-06T15:53:46.999Z</time></trkpt><trkpt lat="45.25413034452225" lon="9.021849627829654"><ele>89.0</ele><time>2026-04-06T15:53:48.999Z</time></trkpt><trkpt lat="45.25416698362173" lon="9.021767809290244"><ele>89.0</ele><time>2026-04-06T15:53:50.999Z</time></trkpt><trkpt lat="45.254206537222494" lon="9.02168761113703"><ele>89.0</ele><time>2026-04-06T15:53:52.999Z</time></trkpt><trkpt lat="45.254254074525484" lon="9.021618458128822"><ele>89.0</ele><time>2026-04-06T15:53:54.999Z</time></trkpt><trkpt lat="45.25427726391102" lon="9.021529454095429"><ele>88.99999999999999</ele><time>2026-04-06T15:53:56.999Z</time></trkpt><trkpt lat="45.25430946172499" lon="9.02145172849104"><ele>89.0</ele><time>2026-04-06T15:53:58.999Z</time></trkpt><trkpt lat="45.25434434815213" lon="9.021369225485918"><ele>89.16666666666667</ele><time>2026-04-06T15:54:00.999Z</time></trkpt><trkpt lat="45.254385760362645" lon="9.021295131228012"><ele>89.33333333333334</ele><time>2026-04-06T15:54:02.999Z</time></trkpt><trkpt lat="45.25438048793525" lon="9.021186737881195"><ele>89.5</ele><time>2026-04-06T15:54:04.999Z</time></trkpt><trkpt lat="45.25432443711375" lon="9.02109226657547"><ele>89.66666666666667</ele><time>2026-04-06T15:54:06.999Z</time></trkpt><trkpt lat="45.25426426535928" lon="9.021061726775272"><ele>89.83333333333333</ele><time>2026-04-06T15:54:08.999Z</time></trkpt><trkpt lat="45.254192710665784" lon="9.021008954816109"><ele>90.0</ele><time>2026-04-06T15:54:11.999Z</time></trkpt><trkpt lat="45.254122977535964" lon="9.020963442161781"><ele>90.0</ele><time>2026-04-06T15:54:14.999Z</time></trkpt><trkpt lat="45.25404908671047" lon="9.020913385946812"><ele>90.0</ele><time>2026-04-06T15:54:18.998Z</time></trkpt><trkpt lat="45.2539898199291" lon="9.020873290203683"><ele>90.0</ele><time>2026-04-06T15:54:21.998Z</time></trkpt><trkpt lat="45.253925620887365" lon="9.02082985762746"><ele>90.0</ele><time>2026-04-06T15:54:24.998Z</time></trkpt><trkpt lat="45.25385627729982" lon="9.020782944580969"><ele>90.0</ele><time>2026-04-06T15:54:27.998Z</time></trkpt><trkpt lat="45.25378896561597" lon="9.020736445714613"><ele>90.0</ele><time>2026-04-06T15:54:30.998Z</time></trkpt><trkpt lat="45.253709325700676" lon="9.020706098148276"><ele>89.85714285714285</ele><time>2026-04-06T15:54:33.998Z</time></trkpt><trkpt lat="45.2536529721783" lon="9.020657099318932"><ele>89.71428571428572</ele><time>2026-04-06T15:54:36.998Z</time></trkpt><trkpt lat="45.253599116293024" lon="9.020601068564886"><ele>89.57142857142857</ele><time>2026-04-06T15:54:39.998Z</time></trkpt><trkpt lat="45.253540425961724" lon="9.020558382001997"><ele>89.42857142857142</ele><time>2026-04-06T15:54:42.999Z</time></trkpt><trkpt lat="45.25346608738565" lon="9.020503603848494"><ele>89.28571428571428</ele><time>2026-04-06T15:54:46.999Z</time></trkpt><trkpt lat="45.25340155502708" lon="9.020475264615355"><ele>89.14285714285714</ele><time>2026-04-06T15:54:50.999Z</time></trkpt><trkpt lat="45.25334568965387" lon="9.020432553863733"><ele>89.0</ele><time>2026-04-06T15:54:53.999Z</time></trkpt><trkpt lat="45.253280105863396" lon="9.020383653855852"><ele>89.0</ele><time>2026-04-06T15:54:56.999Z</time></trkpt><trkpt lat="45.25321487089443" lon="9.020308577465562"><ele>89.0</ele><time>2026-04-06T15:54:59.999Z</time></trkpt><trkpt lat="45.25314252095417" lon="9.02027323428859"><ele>89.0</ele><time>2026-04-06T15:55:02.999Z</time></trkpt><trkpt lat="45.25308027129381" lon="9.020217012908317"><ele>89.0</ele><time>2026-04-06T15:55:05.999Z</time></trkpt><trkpt lat="45.25301908161417" lon="9.020141132109048"><ele>89.0</ele><time>2026-04-06T15:55:08.999Z</time></trkpt><trkpt lat="45.252947215839754" lon="9.020069959154306"><ele>89.0</ele><time>2026-04-06T15:55:11.999Z</time></trkpt><trkpt lat="45.252884982814784" lon="9.020008711511723"><ele>89.0</ele><time>2026-04-06T15:55:14.999Z</time></trkpt><trkpt lat="45.25282954232857" lon="9.019922953968093"><ele>89.0</ele><time>2026-04-06T15:55:17.999Z</time></trkpt><trkpt lat="45.25277003430074" lon="9.019824644507645"><ele>89.0</ele><time>2026-04-06T15:55:20.999Z</time></trkpt><trkpt lat="45.252726491816205" lon="9.019739418225011"><ele>89.0</ele><time>2026-04-06T15:55:23.999Z</time></trkpt><trkpt lat="45.252672407160944" lon="9.019642283885908"><ele>89.0</ele><time>2026-04-06T15:55:26.999Z</time></trkpt><trkpt lat="45.252625023328406" lon="9.019547264665992"><ele>89.0</ele><time>2026-04-06T15:55:29.999Z</time></trkpt><trkpt lat="45.25258337599872" lon="9.019440263294229"><ele>89.0</ele><time>2026-04-06T15:55:32.999Z</time></trkpt><trkpt lat="45.2525283880901" lon="9.019338881804833"><ele>89.0</ele><time>2026-04-06T15:55:35.999Z</time></trkpt><trkpt lat="45.25247210139342" lon="9.019237419019221"><ele>89.0</ele><time>2026-04-06T15:55:38.999Z</time></trkpt><trkpt lat="45.25240500364509" lon="9.019152650170264"><ele>89.0</ele><time>2026-04-06T15:55:41.999Z</time></trkpt><trkpt lat="45.25235263957956" lon="9.019051900124571"><ele>89.0</ele><time>2026-04-06T15:55:44.999Z</time></trkpt><trkpt lat="45.25230235230769" lon="9.018956520658596"><ele>89.0</ele><time>2026-04-06T15:55:47.999Z</time></trkpt><trkpt lat="45.252245144121524" lon="9.018861877784264"><ele>89.0</ele><time>2026-04-06T15:55:50.999Z</time></trkpt><trkpt lat="45.25219467793159" lon="9.018762965996098"><ele>89.0</ele><time>2026-04-06T15:55:53.999Z</time></trkpt><trkpt lat="45.2521487274199" lon="9.01868943812982"><ele>89.0</ele><time>2026-04-06T15:55:56.999Z</time></trkpt><trkpt lat="45.252098983858424" lon="9.01860296063068"><ele>89.0</ele><time>2026-04-06T15:55:59.999Z</time></trkpt><trkpt lat="45.252057674905465" lon="9.018498570873202"><ele>89.0</ele><time>2026-04-06T15:56:02.999Z</time></trkpt><trkpt lat="45.252003715092926" lon="9.018406689849433"><ele>89.0</ele><time>2026-04-06T15:56:05.999Z</time></trkpt><trkpt lat="45.25193716786282" lon="9.018317993065825"><ele>89.0</ele><time>2026-04-06T15:56:08.999Z</time></trkpt><trkpt lat="45.251904747642726" lon="9.01823394067666"><ele>89.0</ele><time>2026-04-06T15:56:10.999Z</time></trkpt><trkpt lat="45.251847608625376" lon="9.018130751009961"><ele>89.0</ele><time>2026-04-06T15:56:13.999Z</time></trkpt><trkpt lat="45.251789945634016" lon="9.018021992934598"><ele>89.0</ele><time>2026-04-06T15:56:16.999Z</time></trkpt><trkpt lat="45.25174796054645" lon="9.017937500769918"><ele>89.0</ele><time>2026-04-06T15:56:18.999Z</time></trkpt><trkpt lat="45.2517108403835" lon="9.01785441359461"><ele>89.0</ele><time>2026-04-06T15:56:20.999Z</time></trkpt><trkpt lat="45.25167687909174" lon="9.017768079123003"><ele>89.0</ele><time>2026-04-06T15:56:22.999Z</time></trkpt><trkpt lat="45.25164355598492" lon="9.01767573362677"><ele>89.0</ele><time>2026-04-06T15:56:24.999Z</time></trkpt><trkpt lat="45.25160941635586" lon="9.017577114840536"><ele>89.0</ele><time>2026-04-06T15:56:26.999Z</time></trkpt><trkpt lat="45.25157395568189" lon="9.017476540021283"><ele>89.0</ele><time>2026-04-06T15:56:28.999Z</time></trkpt><trkpt lat="45.25153970387416" lon="9.017380426088385"><ele>89.0</ele><time>2026-04-06T15:56:30.999Z</time></trkpt><trkpt lat="45.25150461711795" lon="9.01728368379233"><ele>89.0</ele><time>2026-04-06T15:56:32.998Z</time></trkpt><trkpt lat="45.25147277780269" lon="9.017195895434545"><ele>88.57142857142857</ele><time>2026-04-06T15:56:34.998Z</time></trkpt><trkpt lat="45.251441369948076" lon="9.017109296708941"><ele>88.14285714285714</ele><time>2026-04-06T15:56:36.998Z</time></trkpt><trkpt lat="45.25140896169969" lon="9.01701993964057"><ele>87.71428571428572</ele><time>2026-04-06T15:56:38.998Z</time></trkpt><trkpt lat="45.25137718823769" lon="9.016932332883664"><ele>87.28571428571428</ele><time>2026-04-06T15:56:40.998Z</time></trkpt><trkpt lat="45.25134463334278" lon="9.01684279852529"><ele>86.85714285714286</ele><time>2026-04-06T15:56:42.998Z</time></trkpt><trkpt lat="45.25131216401021" lon="9.016754187749223"><ele>86.42857142857143</ele><time>2026-04-06T15:56:44.998Z</time></trkpt><trkpt lat="45.25127975644859" lon="9.016665745600651"><ele>86.0</ele><time>2026-04-06T15:56:46.998Z</time></trkpt><trkpt lat="45.25124605078717" lon="9.016573760831498"><ele>86.0</ele><time>2026-04-06T15:56:48.999Z</time></trkpt><trkpt lat="45.25121297279939" lon="9.016484085493442"><ele>86.0</ele><time>2026-04-06T15:56:50.999Z</time></trkpt><trkpt lat="45.25118148718711" lon="9.016399076434016"><ele>86.0</ele><time>2026-04-06T15:56:52.999Z</time></trkpt><trkpt lat="45.25114942900862" lon="9.016312628690088"><ele>86.0</ele><time>2026-04-06T15:56:54.999Z</time></trkpt><trkpt lat="45.25110702338675" lon="9.016196809026702"><ele>86.0</ele><time>2026-04-06T15:56:57.999Z</time></trkpt><trkpt lat="45.25106442658081" lon="9.016085072318551"><ele>86.0</ele><time>2026-04-06T15:57:00.999Z</time></trkpt><trkpt lat="45.25102471789211" lon="9.015977884804899"><ele>86.0</ele><time>2026-04-06T15:57:03.999Z</time></trkpt><trkpt lat="45.250986159255206" lon="9.015874103490157"><ele>86.0</ele><time>2026-04-06T15:57:06.999Z</time></trkpt><trkpt lat="45.25094824674115" lon="9.015772513767107"><ele>86.0</ele><time>2026-04-06T15:57:09.999Z</time></trkpt><trkpt lat="45.2509131842601" lon="9.015679450031993"><ele>86.0</ele><time>2026-04-06T15:57:12.999Z</time></trkpt><trkpt lat="45.250873527205194" lon="9.015573886072126"><ele>86.0</ele><time>2026-04-06T15:57:16.999Z</time></trkpt><trkpt lat="45.25083771687506" lon="9.01547774249915"><ele>86.0</ele><time>2026-04-06T15:57:19.999Z</time></trkpt><trkpt lat="45.25080089173777" lon="9.015379076163802"><ele>86.0</ele><time>2026-04-06T15:57:22.999Z</time></trkpt><trkpt lat="45.250771264930876" lon="9.015299696471704"><ele>86.0</ele><time>2026-04-06T15:57:24.999Z</time></trkpt><trkpt lat="45.25073959216734" lon="9.015214947764218"><ele>86.0</ele><time>2026-04-06T15:57:26.999Z</time></trkpt><trkpt lat="45.2506954618892" lon="9.015096957360871"><ele>86.0</ele><time>2026-04-06T15:57:29.999Z</time></trkpt><trkpt lat="45.25066517115385" lon="9.015015969492104"><ele>86.0</ele><time>2026-04-06T15:57:31.999Z</time></trkpt><trkpt lat="45.25063182096318" lon="9.014926801622753"><ele>86.0</ele><time>2026-04-06T15:57:37.999Z</time></trkpt><trkpt lat="45.25058695511964" lon="9.014805086981392"><ele>86.0</ele><time>2026-04-06T15:57:40.999Z</time></trkpt><trkpt lat="45.25055383096874" lon="9.014713711796485"><ele>86.0</ele><time>2026-04-06T15:57:44.999Z</time></trkpt><trkpt lat="45.25052253318647" lon="9.01462543381746"><ele>86.0</ele><time>2026-04-06T15:57:46.999Z</time></trkpt><trkpt lat="45.250491199297926" lon="9.014536104748682"><ele>86.0</ele><time>2026-04-06T15:57:49.999Z</time></trkpt><trkpt lat="45.250443824787226" lon="9.014401045835111"><ele>86.0</ele><time>2026-04-06T15:57:51.999Z</time></trkpt><trkpt lat="45.250411597504375" lon="9.014309169795176"><ele>86.0</ele><time>2026-04-06T15:57:55.999Z</time></trkpt><trkpt lat="45.25037681495653" lon="9.01421136853844"><ele>86.14285714285715</ele><time>2026-04-06T15:57:59.999Z</time></trkpt><trkpt lat="45.25034688506183" lon="9.014128235070766"><ele>86.28571428571429</ele><time>2026-04-06T15:58:02.999Z</time></trkpt><trkpt lat="45.25030996858036" lon="9.014029724621"><ele>86.42857142857143</ele><time>2026-04-06T15:58:06.999Z</time></trkpt><trkpt lat="45.2502732075391" lon="9.01393991637455"><ele>86.57142857142858</ele><time>2026-04-06T15:58:12.999Z</time></trkpt><trkpt lat="45.2502361003827" lon="9.013858822186732"><ele>86.71428571428572</ele><time>2026-04-06T15:58:16.999Z</time></trkpt><trkpt lat="45.25018551827681" lon="9.013794239389597"><ele>86.85714285714286</ele><time>2026-04-06T15:58:19.999Z</time></trkpt><trkpt lat="45.250141627657605" lon="9.01371468722692"><ele>87.0</ele><time>2026-04-06T15:58:22.999Z</time></trkpt><trkpt lat="45.25009773737517" lon="9.013639342606718"><ele>87.0</ele><time>2026-04-06T15:58:25.999Z</time></trkpt><trkpt lat="45.25004452642948" lon="9.013580632658948"><ele>87.0</ele><time>2026-04-06T15:58:28.999Z</time></trkpt><trkpt lat="45.24997665102997" lon="9.01350754846288"><ele>87.0</ele><time>2026-04-06T15:58:32.999Z</time></trkpt><trkpt lat="45.24991173270027" lon="9.01345238634518"><ele>87.0</ele><time>2026-04-06T15:58:35.998Z</time></trkpt><trkpt lat="45.249866195697656" lon="9.013388558828296"><ele>87.0</ele><time>2026-04-06T15:58:38.998Z</time></trkpt><trkpt lat="45.249957461031286" lon="9.013283286133763"><ele>87.0</ele><time>2026-04-06T15:58:42.998Z</time></trkpt><trkpt lat="45.25001020915062" lon="9.01320091752377"><ele>86.66666666666667</ele><time>2026-04-06T15:58:46.998Z</time></trkpt><trkpt lat="45.25005537145675" lon="9.01312559233167"><ele>86.33333333333333</ele><time>2026-04-06T15:58:48.998Z</time></trkpt><trkpt lat="45.2501131360797" lon="9.013028035449624"><ele>86.0</ele><time>2026-04-06T15:58:51.998Z</time></trkpt><trkpt lat="45.250173125616286" lon="9.012931300200874"><ele>85.66666666666666</ele><time>2026-04-06T15:58:54.999Z</time></trkpt><trkpt lat="45.25022664681275" lon="9.01286060734058"><ele>85.33333333333333</ele><time>2026-04-06T15:58:56.999Z</time></trkpt><trkpt lat="45.25029040601819" lon="9.01279786062848"><ele>85.0</ele><time>2026-04-06T15:58:59.999Z</time></trkpt><trkpt lat="45.25036327546301" lon="9.01275125355311"><ele>85.0</ele><time>2026-04-06T15:59:03.999Z</time></trkpt><trkpt lat="45.250431380302146" lon="9.012726743704778"><ele>85.0</ele><time>2026-04-06T15:59:06.999Z</time></trkpt><trkpt lat="45.2505075634538" lon="9.012714412319353"><ele>85.0</ele><time>2026-04-06T15:59:09.999Z</time></trkpt><trkpt lat="45.25058875945373" lon="9.012710365456202"><ele>85.0</ele><time>2026-04-06T15:59:12.999Z</time></trkpt><trkpt lat="45.25066613112758" lon="9.012710955668476"><ele>85.0</ele><time>2026-04-06T15:59:14.999Z</time></trkpt><trkpt lat="45.25073217264688" lon="9.012714186057464"><ele>85.0</ele><time>2026-04-06T15:59:16.999Z</time></trkpt><trkpt lat="45.25080200143288" lon="9.012721631511539"><ele>85.0</ele><time>2026-04-06T15:59:19.999Z</time></trkpt><trkpt lat="45.250871533499904" lon="9.012739465522406"><ele>85.66666666666666</ele><time>2026-04-06T15:59:23.999Z</time></trkpt><trkpt lat="45.250948749260324" lon="9.012775718539261"><ele>86.33333333333333</ele><time>2026-04-06T15:59:28.999Z</time></trkpt><trkpt lat="45.251028652672375" lon="9.012803774547274"><ele>87.0</ele><time>2026-04-06T15:59:31.999Z</time></trkpt><trkpt lat="45.2510915451478" lon="9.012870233279312"><ele>87.66666666666667</ele><time>2026-04-06T15:59:34.999Z</time></trkpt><trkpt lat="45.251157971095864" lon="9.012943743824275"><ele>88.33333333333334</ele><time>2026-04-06T15:59:37.999Z</time></trkpt><trkpt lat="45.25121734097759" lon="9.013017094779459"><ele>89.0</ele><time>2026-04-06T15:59:40.999Z</time></trkpt><trkpt lat="45.25128776850738" lon="9.013066523066685"><ele>89.0</ele><time>2026-04-06T15:59:43.999Z</time></trkpt><trkpt lat="45.25135854950753" lon="9.013127425065859"><ele>89.0</ele><time>2026-04-06T15:59:46.999Z</time></trkpt><trkpt lat="45.25142738714122" lon="9.013179623552995"><ele>89.0</ele><time>2026-04-06T15:59:49.999Z</time></trkpt><trkpt lat="45.25149743455463" lon="9.013229731934892"><ele>89.0</ele><time>2026-04-06T15:59:52.999Z</time></trkpt><trkpt lat="45.2515611271423" lon="9.01329743599431"><ele>89.0</ele><time>2026-04-06T15:59:55.999Z</time></trkpt><trkpt lat="45.25163030785921" lon="9.013347692484004"><ele>89.0</ele><time>2026-04-06T15:59:58.999Z</time></trkpt><trkpt lat="45.25170690590451" lon="9.013394299806542"><ele>89.16666666666667</ele><time>2026-04-06T16:00:01.999Z</time></trkpt><trkpt lat="45.2517818327259" lon="9.013430427301511"><ele>89.33333333333334</ele><time>2026-04-06T16:00:04.999Z</time></trkpt><trkpt lat="45.25186244162451" lon="9.013461708636319"><ele>89.5</ele><time>2026-04-06T16:00:07.999Z</time></trkpt><trkpt lat="45.25194700891164" lon="9.01348719565954"><ele>89.66666666666667</ele><time>2026-04-06T16:00:10.999Z</time></trkpt><trkpt lat="45.25203162230332" lon="9.013510525292277"><ele>89.83333333333333</ele><time>2026-04-06T16:00:13.999Z</time></trkpt><trkpt lat="45.252122886485566" lon="9.01351102259222"><ele>90.0</ele><time>2026-04-06T16:00:16.999Z</time></trkpt><trkpt lat="45.25219898805741" lon="9.013551649785052"><ele>90.0</ele><time>2026-04-06T16:00:19.999Z</time></trkpt><trkpt lat="45.25227252442757" lon="9.013560629613002"><ele>90.0</ele><time>2026-04-06T16:00:22.999Z</time></trkpt><trkpt lat="45.25235295605877" lon="9.013549184301988"><ele>90.0</ele><time>2026-04-06T16:00:25.999Z</time></trkpt><trkpt lat="45.25243726724631" lon="9.013551264688145"><ele>90.0</ele><time>2026-04-06T16:00:28.999Z</time></trkpt><trkpt lat="45.252528421504245" lon="9.013527407396014"><ele>90.0</ele><time>2026-04-06T16:00:31.999Z</time></trkpt><trkpt lat="45.25261683134504" lon="9.013487448396223"><ele>90.0</ele><time>2026-04-06T16:00:34.999Z</time></trkpt><trkpt lat="45.25270007908264" lon="9.013459493420191"><ele>90.33333333333333</ele><time>2026-04-06T16:00:37.999Z</time></trkpt><trkpt lat="45.25277361168616" lon="9.013404509413922"><ele>90.66666666666667</ele><time>2026-04-06T16:00:40.999Z</time></trkpt><trkpt lat="45.252850113126215" lon="9.013347845862317"><ele>91.0</ele><time>2026-04-06T16:00:43.999Z</time></trkpt><trkpt lat="45.25292245825983" lon="9.013296190398318"><ele>91.33333333333334</ele><time>2026-04-06T16:00:46.999Z</time></trkpt><trkpt lat="45.25299666896459" lon="9.013243202881718"><ele>91.66666666666667</ele><time>2026-04-06T16:00:49.999Z</time></trkpt><trkpt lat="45.253065080925495" lon="9.013206259364763"><ele>92.0</ele><time>2026-04-06T16:00:52.999Z</time></trkpt><trkpt lat="45.25314083657464" lon="9.013190400969565"><ele>92.0</ele><time>2026-04-06T16:00:55.999Z</time></trkpt><trkpt lat="45.253218655349926" lon="9.013211945176876"><ele>92.0</ele><time>2026-04-06T16:00:59Z</time></trkpt><trkpt lat="45.25328472938754" lon="9.013211564098857"><ele>92.0</ele><time>2026-04-06T16:01:01Z</time></trkpt><trkpt lat="45.25336021207333" lon="9.0132855544477"><ele>92.0</ele><time>2026-04-06T16:01:04Z</time></trkpt><trkpt lat="45.25342418635305" lon="9.013313744208082"><ele>92.0</ele><time>2026-04-06T16:01:06Z</time></trkpt><trkpt lat="45.25348719007058" lon="9.013357509413"><ele>92.0</ele><time>2026-04-06T16:01:08Z</time></trkpt><trkpt lat="45.25354800557449" lon="9.013399493742535"><ele>92.0</ele><time>2026-04-06T16:01:10Z</time></trkpt><trkpt lat="45.25362226519768" lon="9.013447337431977"><ele>92.5</ele><time>2026-04-06T16:01:13Z</time></trkpt><trkpt lat="45.25368581839363" lon="9.013484644151827"><ele>93.0</ele><time>2026-04-06T16:01:15Z</time></trkpt><trkpt lat="45.25376620356758" lon="9.013541185265016"><ele>93.5</ele><time>2026-04-06T16:01:18Z</time></trkpt><trkpt lat="45.25384914407495" lon="9.013588707123722"><ele>94.0</ele><time>2026-04-06T16:01:21Z</time></trkpt><trkpt lat="45.25392687410221" lon="9.013634290169183"><ele>94.5</ele><time>2026-04-06T16:01:24Z</time></trkpt><trkpt lat="45.254000078292314" lon="9.013687678306555"><ele>95.0</ele><time>2026-04-06T16:01:27Z</time></trkpt><trkpt lat="45.25407807247402" lon="9.013731821821056"><ele>93.66666666666667</ele><time>2026-04-06T16:01:30Z</time></trkpt><trkpt lat="45.25415281413292" lon="9.013781505836718"><ele>92.33333333333334</ele><time>2026-04-06T16:01:33Z</time></trkpt><trkpt lat="45.25423647480512" lon="9.013828646191609"><ele>91.0</ele><time>2026-04-06T16:01:36Z</time></trkpt><trkpt lat="45.254311598945115" lon="9.013878255183817"><ele>89.66666666666667</ele><time>2026-04-06T16:01:39Z</time></trkpt><trkpt lat="45.254392244794964" lon="9.0139258681006"><ele>88.33333333333333</ele><time>2026-04-06T16:01:42Z</time></trkpt><trkpt lat="45.2544623842723" lon="9.013988462071351"><ele>87.0</ele><time>2026-04-06T16:01:45Z</time></trkpt><trkpt lat="45.2545402397856" lon="9.014014768905515"><ele>87.0</ele><time>2026-04-06T16:01:48Z</time></trkpt><trkpt lat="45.25462719476165" lon="9.01402453801598"><ele>87.0</ele><time>2026-04-06T16:01:51Z</time></trkpt><trkpt lat="45.25469056885812" lon="9.01401711662544"><ele>87.0</ele><time>2026-04-06T16:01:53Z</time></trkpt><trkpt lat="45.25478121352726" lon="9.013977572961396"><ele>87.0</ele><time>2026-04-06T16:01:56Z</time></trkpt><trkpt lat="45.25484217009354" lon="9.013944411625602"><ele>87.0</ele><time>2026-04-06T16:01:58Z</time></trkpt><trkpt lat="45.25490090501797" lon="9.013908849320867"><ele>87.0</ele><time>2026-04-06T16:02:00Z</time></trkpt><trkpt lat="45.254977839806685" lon="9.013859559101203"><ele>87.0</ele><time>2026-04-06T16:02:03Z</time></trkpt><trkpt lat="45.2550577471211" lon="9.013809731455163"><ele>87.0</ele><time>2026-04-06T16:02:06Z</time></trkpt><trkpt lat="45.25513799335322" lon="9.013762760274327"><ele>87.0</ele><time>2026-04-06T16:02:09Z</time></trkpt><trkpt lat="45.25521885417902" lon="9.01371860570038"><ele>87.0</ele><time>2026-04-06T16:02:12Z</time></trkpt><trkpt lat="45.25530409180868" lon="9.013672400522951"><ele>87.0</ele><time>2026-04-06T16:02:15Z</time></trkpt><trkpt lat="45.25538552660655" lon="9.013630530392433"><ele>87.0</ele><time>2026-04-06T16:02:18Z</time></trkpt><trkpt lat="45.255464137480956" lon="9.013590953960104"><ele>87.0</ele><time>2026-04-06T16:02:21Z</time></trkpt><trkpt lat="45.255552292309815" lon="9.013551497063421"><ele>87.0</ele><time>2026-04-06T16:02:24Z</time></trkpt><trkpt lat="45.25563954926474" lon="9.013521357289138"><ele>87.0</ele><time>2026-04-06T16:02:27Z</time></trkpt><trkpt lat="45.25570041877625" lon="9.01349337035689"><ele>87.0</ele><time>2026-04-06T16:02:29Z</time></trkpt><trkpt lat="45.255761752535456" lon="9.013455209909923"><ele>87.0</ele><time>2026-04-06T16:02:30.999Z</time></trkpt><trkpt lat="45.25581960481565" lon="9.013408947083189"><ele>87.0</ele><time>2026-04-06T16:02:32.999Z</time></trkpt><trkpt lat="45.25589709050522" lon="9.013341433334247"><ele>87.19999999999999</ele><time>2026-04-06T16:02:35.999Z</time></trkpt><trkpt lat="45.255971835040604" lon="9.013270894499987"><ele>87.4</ele><time>2026-04-06T16:02:38.999Z</time></trkpt><trkpt lat="45.25604912879275" lon="9.013193514577633"><ele>87.6</ele><time>2026-04-06T16:02:41.999Z</time></trkpt><trkpt lat="45.256126077830935" lon="9.013107257061725"><ele>87.80000000000001</ele><time>2026-04-06T16:02:44.999Z</time></trkpt><trkpt lat="45.25619560460388" lon="9.013021154955307"><ele>88.0</ele><time>2026-04-06T16:02:47.999Z</time></trkpt><trkpt lat="45.25626208739376" lon="9.012929573473155"><ele>88.0</ele><time>2026-04-06T16:02:50.999Z</time></trkpt><trkpt lat="45.25630318974585" lon="9.012861030119764"><ele>88.0</ele><time>2026-04-06T16:02:52.999Z</time></trkpt><trkpt lat="45.25636055288921" lon="9.012761440317872"><ele>88.0</ele><time>2026-04-06T16:02:55.999Z</time></trkpt><trkpt lat="45.25641546088576" lon="9.012669708343521"><ele>88.0</ele><time>2026-04-06T16:02:58.999Z</time></trkpt><trkpt lat="45.25647035574311" lon="9.012577458772451"><ele>88.0</ele><time>2026-04-06T16:03:01.999Z</time></trkpt><trkpt lat="45.25652573646113" lon="9.012484266135347"><ele>88.0</ele><time>2026-04-06T16:03:05.001Z</time></trkpt><trkpt lat="45.25658503990559" lon="9.012384069267858"><ele>88.0</ele><time>2026-04-06T16:03:08.001Z</time></trkpt><trkpt lat="45.25664329822613" lon="9.01228497325389"><ele>88.0</ele><time>2026-04-06T16:03:11.001Z</time></trkpt><trkpt lat="45.25669947032014" lon="9.012190031947204"><ele>88.0</ele><time>2026-04-06T16:03:14.001Z</time></trkpt><trkpt lat="45.256756151831794" lon="9.01208936145196"><ele>88.0</ele><time>2026-04-06T16:03:17.001Z</time></trkpt><trkpt lat="45.25681154854717" lon="9.011987025032882"><ele>88.0</ele><time>2026-04-06T16:03:20.001Z</time></trkpt><trkpt lat="45.256866682876726" lon="9.011883042260546"><ele>88.0</ele><time>2026-04-06T16:03:23.001Z</time></trkpt><trkpt lat="45.25692021306477" lon="9.011781649787444"><ele>88.0</ele><time>2026-04-06T16:03:26Z</time></trkpt><trkpt lat="45.25697114705233" lon="9.011688717012001"><ele>88.0</ele><time>2026-04-06T16:03:29Z</time></trkpt><trkpt lat="45.257023430900205" lon="9.011597540687273"><ele>88.0</ele><time>2026-04-06T16:03:32Z</time></trkpt><trkpt lat="45.257080506233656" lon="9.011521853094678"><ele>88.0</ele><time>2026-04-06T16:03:35Z</time></trkpt><trkpt lat="45.25715147172542" lon="9.011473066082495"><ele>88.0</ele><time>2026-04-06T16:03:38Z</time></trkpt><trkpt lat="45.25722088152198" lon="9.011421008721685"><ele>87.83333333333333</ele><time>2026-04-06T16:03:41Z</time></trkpt><trkpt lat="45.25728464032216" lon="9.011362094653215"><ele>87.66666666666666</ele><time>2026-04-06T16:03:44Z</time></trkpt><trkpt lat="45.257356039947304" lon="9.011292283869812"><ele>87.5</ele><time>2026-04-06T16:03:47Z</time></trkpt><trkpt lat="45.25742068916041" lon="9.011223571431248"><ele>87.33333333333333</ele><time>2026-04-06T16:03:50Z</time></trkpt><trkpt lat="45.25748385417867" lon="9.011155469483628"><ele>87.16666666666667</ele><time>2026-04-06T16:03:53Z</time></trkpt><trkpt lat="45.25755428356658" lon="9.011081917643777"><ele>87.0</ele><time>2026-04-06T16:03:56Z</time></trkpt><trkpt lat="45.25762324702071" lon="9.01101088498329"><ele>87.14285714285714</ele><time>2026-04-06T16:03:59Z</time></trkpt><trkpt lat="45.25768889088088" lon="9.010944665118416"><ele>87.28571428571429</ele><time>2026-04-06T16:04:02Z</time></trkpt><trkpt lat="45.25774962019497" lon="9.010883402923321"><ele>87.42857142857143</ele><time>2026-04-06T16:04:05Z</time></trkpt><trkpt lat="45.25781185075406" lon="9.010820626313741"><ele>87.57142857142857</ele><time>2026-04-06T16:04:08Z</time></trkpt><trkpt lat="45.25786620212187" lon="9.010765798027366"><ele>87.71428571428571</ele><time>2026-04-06T16:04:11Z</time></trkpt><trkpt lat="45.25792493704328" lon="9.010706547725267"><ele>87.85714285714286</ele><time>2026-04-06T16:04:14Z</time></trkpt><trkpt lat="45.25798229097981" lon="9.010647690384662"><ele>88.0</ele><time>2026-04-06T16:04:17Z</time></trkpt><trkpt lat="45.25801511402517" lon="9.010534925213088"><ele>88.0</ele><time>2026-04-06T16:04:20Z</time></trkpt><trkpt lat="45.258074537317945" lon="9.010491656085721"><ele>88.0</ele><time>2026-04-06T16:04:23Z</time></trkpt><trkpt lat="45.25812383063637" lon="9.010429292286661"><ele>88.0</ele><time>2026-04-06T16:04:26Z</time></trkpt><trkpt lat="45.25817904332713" lon="9.010378221222496"><ele>88.0</ele><time>2026-04-06T16:04:29Z</time></trkpt><trkpt lat="45.25824305008408" lon="9.010325612676061"><ele>88.0</ele><time>2026-04-06T16:04:32Z</time></trkpt><trkpt lat="45.258296936865875" lon="9.010270502312835"><ele>88.0</ele><time>2026-04-06T16:04:35Z</time></trkpt><trkpt lat="45.25836187827484" lon="9.01020119678521"><ele>88.0</ele><time>2026-04-06T16:04:38Z</time></trkpt><trkpt lat="45.25842865975062" lon="9.010140189365076"><ele>88.14285714285714</ele><time>2026-04-06T16:04:41Z</time></trkpt><trkpt lat="45.258490471045356" lon="9.01006988826523"><ele>88.28571428571428</ele><time>2026-04-06T16:04:44Z</time></trkpt><trkpt lat="45.25854373385625" lon="9.010013807410921"><ele>88.42857142857142</ele><time>2026-04-06T16:06:36.999Z</time></trkpt><trkpt lat="45.25860512608037" lon="9.009960303014733"><ele>88.57142857142857</ele><time>2026-04-06T16:06:40.999Z</time></trkpt><trkpt lat="45.25866320599661" lon="9.009911763298746"><ele>88.71428571428571</ele><time>2026-04-06T16:06:43.999Z</time></trkpt><trkpt lat="45.25872090330045" lon="9.009835679238495"><ele>88.85714285714285</ele><time>2026-04-06T16:06:46.999Z</time></trkpt><trkpt lat="45.258789205525204" lon="9.009769060324782"><ele>89.0</ele><time>2026-04-06T16:06:49.999Z</time></trkpt><trkpt lat="45.25885077145828" lon="9.009701660848204"><ele>89.0</ele><time>2026-04-06T16:06:52.999Z</time></trkpt><trkpt lat="45.25892006691322" lon="9.009630081450494"><ele>89.0</ele><time>2026-04-06T16:06:55.999Z</time></trkpt><trkpt lat="45.258983317636684" lon="9.00956311223537"><ele>89.0</ele><time>2026-04-06T16:06:58.999Z</time></trkpt><trkpt lat="45.25907215101777" lon="9.009482338006354"><ele>89.0</ele><time>2026-04-06T16:07:02.999Z</time></trkpt><trkpt lat="45.25915377536446" lon="9.009470958302767"><ele>89.0</ele><time>2026-04-06T16:07:05.999Z</time></trkpt><trkpt lat="45.25921748830574" lon="9.009438116181698"><ele>89.0</ele><time>2026-04-06T16:07:08.999Z</time></trkpt><trkpt lat="45.25928849633259" lon="9.009407655347344"><ele>89.16666666666667</ele><time>2026-04-06T16:07:12.999Z</time></trkpt><trkpt lat="45.25935366041462" lon="9.00938212714894"><ele>89.33333333333334</ele><time>2026-04-06T16:07:15.998Z</time></trkpt><trkpt lat="45.25942800826852" lon="9.009353067010602"><ele>89.5</ele><time>2026-04-06T16:07:19.998Z</time></trkpt><trkpt lat="45.25949142117727" lon="9.009350725655132"><ele>89.66666666666667</ele><time>2026-04-06T16:07:24.998Z</time></trkpt><trkpt lat="45.25956040546701" lon="9.009177225139556"><ele>89.83333333333333</ele><time>2026-04-06T16:07:29.998Z</time></trkpt><trkpt lat="45.259590230984806" lon="9.009097063715553"><ele>90.0</ele><time>2026-04-06T16:07:32.999Z</time></trkpt><trkpt lat="45.25962653811466" lon="9.00898693499949"><ele>90.0</ele><time>2026-04-06T16:07:36.999Z</time></trkpt><trkpt lat="45.2596535777149" lon="9.008902505504588"><ele>90.0</ele><time>2026-04-06T16:07:39.999Z</time></trkpt><trkpt lat="45.259687055319574" lon="9.008823374190918"><ele>90.0</ele><time>2026-04-06T16:07:43.999Z</time></trkpt><trkpt lat="45.25972529532025" lon="9.00874446839251"><ele>90.0</ele><time>2026-04-06T16:07:46.999Z</time></trkpt><trkpt lat="45.2597661277453" lon="9.008662759407448"><ele>90.0</ele><time>2026-04-06T16:07:49.999Z</time></trkpt><trkpt lat="45.259803462135665" lon="9.008587665291534"><ele>90.0</ele><time>2026-04-06T16:07:52.999Z</time></trkpt><trkpt lat="45.25984086804338" lon="9.008510409205725"><ele>90.0</ele><time>2026-04-06T16:07:55.999Z</time></trkpt><trkpt lat="45.25987670674083" lon="9.008435056813896"><ele>89.71428571428571</ele><time>2026-04-06T16:07:58.999Z</time></trkpt><trkpt lat="45.259914440244394" lon="9.008355720540086"><ele>89.42857142857143</ele><time>2026-04-06T16:08:01.999Z</time></trkpt><trkpt lat="45.25995395394467" lon="9.008270656475004"><ele>89.14285714285714</ele><time>2026-04-06T16:08:04.999Z</time></trkpt><trkpt lat="45.259998664206435" lon="9.008167442077374"><ele>88.85714285714286</ele><time>2026-04-06T16:08:07.999Z</time></trkpt><trkpt lat="45.26003799615854" lon="9.008072891646618"><ele>88.57142857142857</ele><time>2026-04-06T16:08:10.999Z</time></trkpt><trkpt lat="45.260078447796715" lon="9.00797926742983"><ele>88.28571428571429</ele><time>2026-04-06T16:08:13.999Z</time></trkpt><trkpt lat="45.26011386732904" lon="9.007898316635675"><ele>88.0</ele><time>2026-04-06T16:08:16.999Z</time></trkpt><trkpt lat="45.260150678633366" lon="9.007816426677453"><ele>88.0</ele><time>2026-04-06T16:08:19.999Z</time></trkpt><trkpt lat="45.260190219682386" lon="9.007727784250864"><ele>88.0</ele><time>2026-04-06T16:08:22.999Z</time></trkpt><trkpt lat="45.26023881204841" lon="9.007622080967328"><ele>88.0</ele><time>2026-04-06T16:08:25.999Z</time></trkpt><trkpt lat="45.26028443152062" lon="9.007522773281408"><ele>88.0</ele><time>2026-04-06T16:08:28.999Z</time></trkpt><trkpt lat="45.260324904589304" lon="9.007434668634634"><ele>88.0</ele><time>2026-04-06T16:08:31.999Z</time></trkpt><trkpt lat="45.260363743828904" lon="9.0073518739645"><ele>88.0</ele><time>2026-04-06T16:08:34.999Z</time></trkpt><trkpt lat="45.26039899264647" lon="9.007258840450596"><ele>88.5</ele><time>2026-04-06T16:08:37.999Z</time></trkpt><trkpt lat="45.26044030228036" lon="9.007167175506572"><ele>89.0</ele><time>2026-04-06T16:08:40.998Z</time></trkpt><trkpt lat="45.260484993182395" lon="9.007078269687096"><ele>89.5</ele><time>2026-04-06T16:08:43.998Z</time></trkpt><trkpt lat="45.26053345369718" lon="9.006999574227711"><ele>90.0</ele><time>2026-04-06T16:08:46.998Z</time></trkpt><trkpt lat="45.26057831806846" lon="9.006908853803502"><ele>90.5</ele><time>2026-04-06T16:08:49.998Z</time></trkpt><trkpt lat="45.260627193555024" lon="9.00682526981577"><ele>91.0</ele><time>2026-04-06T16:08:52.998Z</time></trkpt><trkpt lat="45.26067721517019" lon="9.006753004618623"><ele>91.0</ele><time>2026-04-06T16:08:55.998Z</time></trkpt><trkpt lat="45.2607280833148" lon="9.006682044364638"><ele>91.0</ele><time>2026-04-06T16:08:58.998Z</time></trkpt><trkpt lat="45.260768752234064" lon="9.006599543514874"><ele>91.0</ele><time>2026-04-06T16:09:01.998Z</time></trkpt><trkpt lat="45.26081433460352" lon="9.006532294997445"><ele>91.0</ele><time>2026-04-06T16:09:04.998Z</time></trkpt><trkpt lat="45.2608535711649" lon="9.006456326871616"><ele>91.0</ele><time>2026-04-06T16:09:07.998Z</time></trkpt><trkpt lat="45.26090232759452" lon="9.006379374257858"><ele>91.0</ele><time>2026-04-06T16:09:10.998Z</time></trkpt><trkpt lat="45.26093953638289" lon="9.006285508829702"><ele>91.0</ele><time>2026-04-06T16:09:13.998Z</time></trkpt><trkpt lat="45.26099357257054" lon="9.006217560670173"><ele>90.28571428571429</ele><time>2026-04-06T16:09:16.998Z</time></trkpt><trkpt lat="45.26104109832827" lon="9.006143434875264"><ele>89.57142857142857</ele><time>2026-04-06T16:09:19.998Z</time></trkpt><trkpt lat="45.26109102500354" lon="9.00607728294377"><ele>88.85714285714286</ele><time>2026-04-06T16:09:22.997Z</time></trkpt><trkpt lat="45.26114017478268" lon="9.006009490097448"><ele>88.14285714285714</ele><time>2026-04-06T16:09:25.997Z</time></trkpt><trkpt lat="45.26117597484691" lon="9.005932523486186"><ele>87.42857142857143</ele><time>2026-04-06T16:09:28.997Z</time></trkpt><trkpt lat="45.26123169226624" lon="9.005869762619069"><ele>86.71428571428572</ele><time>2026-04-06T16:09:31.998Z</time></trkpt><trkpt lat="45.26128153124623" lon="9.00579889845177"><ele>86.0</ele><time>2026-04-06T16:09:34.998Z</time></trkpt><trkpt lat="45.261333134495324" lon="9.005737906700256"><ele>86.5</ele><time>2026-04-06T16:09:37.998Z</time></trkpt><trkpt lat="45.261386644308395" lon="9.005679220005117"><ele>87.0</ele><time>2026-04-06T16:09:40.998Z</time></trkpt><trkpt lat="45.26143770482497" lon="9.005613228975141"><ele>87.5</ele><time>2026-04-06T16:09:43.998Z</time></trkpt><trkpt lat="45.261510311622395" lon="9.005552696939862"><ele>88.0</ele><time>2026-04-06T16:09:46.998Z</time></trkpt><trkpt lat="45.26157332448781" lon="9.005495233225759"><ele>88.5</ele><time>2026-04-06T16:09:49.998Z</time></trkpt><trkpt lat="45.26164691280779" lon="9.005449286887913"><ele>89.0</ele><time>2026-04-06T16:09:52.998Z</time></trkpt><trkpt lat="45.26171337243432" lon="9.005377616547689"><ele>89.0</ele><time>2026-04-06T16:09:55.998Z</time></trkpt><trkpt lat="45.261780556022885" lon="9.005312958157273"><ele>89.0</ele><time>2026-04-06T16:09:58.998Z</time></trkpt><trkpt lat="45.261835830846564" lon="9.00523777455242"><ele>89.0</ele><time>2026-04-06T16:10:01.998Z</time></trkpt><trkpt lat="45.261892228558736" lon="9.005156300570698"><ele>89.0</ele><time>2026-04-06T16:10:04.998Z</time></trkpt><trkpt lat="45.26194536030838" lon="9.005081303135151"><ele>89.0</ele><time>2026-04-06T16:10:07.998Z</time></trkpt><trkpt lat="45.26199578138722" lon="9.005006984914537"><ele>89.0</ele><time>2026-04-06T16:10:10.999Z</time></trkpt><trkpt lat="45.26205160573857" lon="9.004930399142737"><ele>88.66666666666667</ele><time>2026-04-06T16:10:13.999Z</time></trkpt><trkpt lat="45.26210721120954" lon="9.004809368244215"><ele>88.33333333333334</ele><time>2026-04-06T16:10:17.999Z</time></trkpt><trkpt lat="45.26215491193128" lon="9.004733106097659"><ele>88.0</ele><time>2026-04-06T16:10:20.999Z</time></trkpt><trkpt lat="45.26221222980145" lon="9.004648517440883"><ele>87.66666666666667</ele><time>2026-04-06T16:10:24.999Z</time></trkpt><trkpt lat="45.26224936758851" lon="9.004567858451166"><ele>87.33333333333333</ele><time>2026-04-06T16:10:27.999Z</time></trkpt><trkpt lat="45.262287057982604" lon="9.004483808384672"><ele>87.0</ele><time>2026-04-06T16:10:30.999Z</time></trkpt><trkpt lat="45.262326630746024" lon="9.004404777610064"><ele>87.57142857142857</ele><time>2026-04-06T16:10:33.999Z</time></trkpt><trkpt lat="45.26236286263165" lon="9.00432558360053"><ele>88.14285714285714</ele><time>2026-04-06T16:10:36.999Z</time></trkpt><trkpt lat="45.26240360142758" lon="9.004246640611406"><ele>88.71428571428572</ele><time>2026-04-06T16:10:39.999Z</time></trkpt><trkpt lat="45.26243956894525" lon="9.004168253363302"><ele>89.28571428571428</ele><time>2026-04-06T16:10:42.999Z</time></trkpt><trkpt lat="45.26248618480157" lon="9.004094696773562"><ele>89.85714285714286</ele><time>2026-04-06T16:10:45.999Z</time></trkpt><trkpt lat="45.26252517240835" lon="9.004020065533721"><ele>90.42857142857143</ele><time>2026-04-06T16:10:48.999Z</time></trkpt><trkpt lat="45.262578469450624" lon="9.00393533487693"><ele>91.0</ele><time>2026-04-06T16:10:52.999Z</time></trkpt><trkpt lat="45.26263027622599" lon="9.003876137536617"><ele>91.0</ele><time>2026-04-06T16:10:55.999Z</time></trkpt><trkpt lat="45.26272387608016" lon="9.003813866291019"><ele>91.0</ele><time>2026-04-06T16:10:59.999Z</time></trkpt><trkpt lat="45.26279528407076" lon="9.003812147836632"><ele>91.0</ele><time>2026-04-06T16:11:02.999Z</time></trkpt><trkpt lat="45.262866627984366" lon="9.003815187689233"><ele>91.0</ele><time>2026-04-06T16:11:05.998Z</time></trkpt><trkpt lat="45.26293613949983" lon="9.00381798561645"><ele>91.0</ele><time>2026-04-06T16:11:08.998Z</time></trkpt><trkpt lat="45.26300384335048" lon="9.003819107316184"><ele>91.0</ele><time>2026-04-06T16:11:11.998Z</time></trkpt><trkpt lat="45.263067582327984" lon="9.003813729535288"><ele>91.0</ele><time>2026-04-06T16:12:01.999Z</time></trkpt><trkpt lat="45.26310691031161" lon="9.003730685939084"><ele>91.42857142857143</ele><time>2026-04-06T16:12:06.999Z</time></trkpt><trkpt lat="45.26313393717424" lon="9.003646058797212"><ele>91.85714285714286</ele><time>2026-04-06T16:12:11.999Z</time></trkpt><trkpt lat="45.26316699075779" lon="9.003553182865545"><ele>92.28571428571428</ele><time>2026-04-06T16:12:15.999Z</time></trkpt><trkpt lat="45.26320123021497" lon="9.003473233964758"><ele>92.71428571428572</ele><time>2026-04-06T16:12:19.999Z</time></trkpt><trkpt lat="45.26324602042679" lon="9.003381116838733"><ele>93.14285714285714</ele><time>2026-04-06T16:12:23.999Z</time></trkpt><trkpt lat="45.26328595542279" lon="9.003291465345864"><ele>93.57142857142857</ele><time>2026-04-06T16:12:27.999Z</time></trkpt><trkpt lat="45.26332890830533" lon="9.003208518016763"><ele>94.0</ele><time>2026-04-06T16:12:31.999Z</time></trkpt><trkpt lat="45.263370919602266" lon="9.003129865377543"><ele>94.14285714285714</ele><time>2026-04-06T16:12:34.999Z</time></trkpt><trkpt lat="45.26341277320954" lon="9.003042117931102"><ele>94.28571428571428</ele><time>2026-04-06T16:12:37.999Z</time></trkpt><trkpt lat="45.26346069898281" lon="9.002958906807482"><ele>94.42857142857143</ele><time>2026-04-06T16:12:40.999Z</time></trkpt><trkpt lat="45.263495465191085" lon="9.002873794112471"><ele>94.57142857142857</ele><time>2026-04-06T16:12:43.999Z</time></trkpt><trkpt lat="45.263540625899935" lon="9.00277803457547"><ele>94.71428571428572</ele><time>2026-04-06T16:12:46.999Z</time></trkpt><trkpt lat="45.263574484496246" lon="9.002689869456443"><ele>94.85714285714286</ele><time>2026-04-06T16:12:49.999Z</time></trkpt><trkpt lat="45.26361829590278" lon="9.002605518981749"><ele>95.0</ele><time>2026-04-06T16:12:52.999Z</time></trkpt><trkpt lat="45.26366324434403" lon="9.002525520697573"><ele>94.66666666666667</ele><time>2026-04-06T16:12:55.999Z</time></trkpt><trkpt lat="45.263709405367045" lon="9.00243470013526"><ele>94.33333333333334</ele><time>2026-04-06T16:12:58.999Z</time></trkpt><trkpt lat="45.26375632829399" lon="9.00234153252903"><ele>94.0</ele><time>2026-04-06T16:13:01.999Z</time></trkpt><trkpt lat="45.263802819620174" lon="9.0022412024423"><ele>93.66666666666667</ele><time>2026-04-06T16:13:04.999Z</time></trkpt><trkpt lat="45.26384423854498" lon="9.002152274749443"><ele>93.33333333333333</ele><time>2026-04-06T16:13:07.999Z</time></trkpt><trkpt lat="45.26389224274446" lon="9.002067689181084"><ele>93.0</ele><time>2026-04-06T16:13:10.999Z</time></trkpt><trkpt lat="45.26393308807187" lon="9.001980462958869"><ele>93.57142857142858</ele><time>2026-04-06T16:13:13.999Z</time></trkpt><trkpt lat="45.26397345627981" lon="9.001890303533825"><ele>94.14285714285714</ele><time>2026-04-06T16:13:16.999Z</time></trkpt><trkpt lat="45.264013833230486" lon="9.001803977780003"><ele>94.71428571428572</ele><time>2026-04-06T16:13:19.999Z</time></trkpt><trkpt lat="45.26405578658208" lon="9.00172394262103"><ele>95.28571428571429</ele><time>2026-04-06T16:13:22.999Z</time></trkpt><trkpt lat="45.26409165404666" lon="9.001634624613388"><ele>95.85714285714286</ele><time>2026-04-06T16:13:25.999Z</time></trkpt><trkpt lat="45.2641370308782" lon="9.001549964176077"><ele>96.42857142857143</ele><time>2026-04-06T16:13:28.999Z</time></trkpt><trkpt lat="45.26418175702831" lon="9.00146109332079"><ele>97.0</ele><time>2026-04-06T16:13:31.999Z</time></trkpt><trkpt lat="45.26422446456314" lon="9.001368756354445"><ele>97.0</ele><time>2026-04-06T16:13:34.999Z</time></trkpt><trkpt lat="45.26426736142012" lon="9.001279363691843"><ele>97.0</ele><time>2026-04-06T16:13:37.999Z</time></trkpt><trkpt lat="45.26431946943723" lon="9.0011955997044"><ele>97.0</ele><time>2026-04-06T16:13:40.999Z</time></trkpt><trkpt lat="45.26436060734122" lon="9.001114493722117"><ele>97.0</ele><time>2026-04-06T16:13:43.999Z</time></trkpt><trkpt lat="45.26439442467322" lon="9.001036137938813"><ele>97.0</ele><time>2026-04-06T16:13:46.999Z</time></trkpt><trkpt lat="45.26444525846506" lon="9.00093821088519"><ele>97.0</ele><time>2026-04-06T16:13:49.999Z</time></trkpt><trkpt lat="45.26448872700823" lon="9.000857397171632"><ele>97.0</ele><time>2026-04-06T16:13:52.999Z</time></trkpt><trkpt lat="45.26452593181986" lon="9.00078317102234"><ele>96.71428571428571</ele><time>2026-04-06T16:13:55.999Z</time></trkpt><trkpt lat="45.264565928970775" lon="9.000681864465081"><ele>96.42857142857143</ele><time>2026-04-06T16:13:58.999Z</time></trkpt><trkpt lat="45.26460872659449" lon="9.00060901555226"><ele>96.14285714285714</ele><time>2026-04-06T16:14:02Z</time></trkpt><trkpt lat="45.264653257051485" lon="9.00053205391369"><ele>95.85714285714286</ele><time>2026-04-06T16:14:05Z</time></trkpt><trkpt lat="45.264702088113296" lon="9.000432129816101"><ele>95.57142857142858</ele><time>2026-04-06T16:14:08Z</time></trkpt><trkpt lat="45.264749053469615" lon="9.00034141715944"><ele>95.28571428571429</ele><time>2026-04-06T16:14:11Z</time></trkpt><trkpt lat="45.26479652942464" lon="9.00027756541697"><ele>95.0</ele><time>2026-04-06T16:14:14Z</time></trkpt><trkpt lat="45.2648670219369" lon="9.000224056226074"><ele>95.0</ele><time>2026-04-06T16:14:18Z</time></trkpt><trkpt lat="45.2649379685631" lon="9.000241843784044"><ele>95.0</ele><time>2026-04-06T16:14:21Z</time></trkpt><trkpt lat="45.2650112879778" lon="9.000298074408272"><ele>95.0</ele><time>2026-04-06T16:14:24Z</time></trkpt><trkpt lat="45.26508291353274" lon="9.000358955164137"><ele>95.0</ele><time>2026-04-06T16:14:27Z</time></trkpt><trkpt lat="45.2651331845834" lon="9.000413508412887"><ele>95.0</ele><time>2026-04-06T16:14:29Z</time></trkpt><trkpt lat="45.26518777705291" lon="9.000462543888473"><ele>95.0</ele><time>2026-04-06T16:14:31Z</time></trkpt><trkpt lat="45.26524410588786" lon="9.000512833848934"><ele>95.0</ele><time>2026-04-06T16:14:33Z</time></trkpt><trkpt lat="45.26529914432257" lon="9.00056732258947"><ele>95.0</ele><time>2026-04-06T16:14:35Z</time></trkpt><trkpt lat="45.26535092250601" lon="9.000618653443794"><ele>95.0</ele><time>2026-04-06T16:14:37Z</time></trkpt><trkpt lat="45.26543164846778" lon="9.000682373072697"><ele>95.0</ele><time>2026-04-06T16:14:40Z</time></trkpt><trkpt lat="45.2655122520513" lon="9.000736742522609"><ele>95.0</ele><time>2026-04-06T16:14:43Z</time></trkpt><trkpt lat="45.26558809171673" lon="9.000779148504574"><ele>95.0</ele><time>2026-04-06T16:14:46Z</time></trkpt><trkpt lat="45.26566718874914" lon="9.000815412294363"><ele>95.0</ele><time>2026-04-06T16:14:49Z</time></trkpt><trkpt lat="45.26573307403022" lon="9.000849807622101"><ele>95.0</ele><time>2026-04-06T16:14:52Z</time></trkpt><trkpt lat="45.26581204754186" lon="9.000891110809622"><ele>95.0</ele><time>2026-04-06T16:14:56Z</time></trkpt><trkpt lat="45.265891044853696" lon="9.000930589024465"><ele>95.0</ele><time>2026-04-06T16:14:59Z</time></trkpt><trkpt lat="45.26597751266402" lon="9.00097817275318"><ele>95.0</ele><time>2026-04-06T16:15:02Z</time></trkpt><trkpt lat="45.26604138528857" lon="9.00100870025448"><ele>95.0</ele><time>2026-04-06T16:15:04Z</time></trkpt><trkpt lat="45.266110247843095" lon="9.001043000589823"><ele>95.0</ele><time>2026-04-06T16:15:06Z</time></trkpt><trkpt lat="45.26617683372451" lon="9.001077319289976"><ele>95.0</ele><time>2026-04-06T16:15:08Z</time></trkpt><trkpt lat="45.26623836321152" lon="9.001106756437741"><ele>95.0</ele><time>2026-04-06T16:15:10Z</time></trkpt><trkpt lat="45.26631876183033" lon="9.001151780332162"><ele>95.0</ele><time>2026-04-06T16:15:13Z</time></trkpt><trkpt lat="45.266392103903975" lon="9.001183974725333"><ele>95.0</ele><time>2026-04-06T16:15:16Z</time></trkpt><trkpt lat="45.266475815601524" lon="9.00122694931084"><ele>95.0</ele><time>2026-04-06T16:15:19Z</time></trkpt><trkpt lat="45.26655851092152" lon="9.001273116962961"><ele>95.0</ele><time>2026-04-06T16:15:22Z</time></trkpt><trkpt lat="45.26661900391258" lon="9.001304717799503"><ele>95.0</ele><time>2026-04-06T16:15:24Z</time></trkpt><trkpt lat="45.26667999157421" lon="9.001334305605505"><ele>95.0</ele><time>2026-04-06T16:15:26Z</time></trkpt><trkpt lat="45.266741193004385" lon="9.001368323715852"><ele>95.0</ele><time>2026-04-06T16:15:28Z</time></trkpt><trkpt lat="45.26680356840028" lon="9.001394196840414"><ele>95.0</ele><time>2026-04-06T16:15:30Z</time></trkpt><trkpt lat="45.26686472925197" lon="9.001422103910103"><ele>95.0</ele><time>2026-04-06T16:15:32Z</time></trkpt><trkpt lat="45.26692514763594" lon="9.001453067434172"><ele>95.0</ele><time>2026-04-06T16:15:34Z</time></trkpt><trkpt lat="45.26701705355467" lon="9.001491321155136"><ele>95.0</ele><time>2026-04-06T16:15:37Z</time></trkpt><trkpt lat="45.267109138233344" lon="9.001530415452622"><ele>95.0</ele><time>2026-04-06T16:15:40.001Z</time></trkpt><trkpt lat="45.26716943888471" lon="9.001561372030292"><ele>95.0</ele><time>2026-04-06T16:15:42.001Z</time></trkpt><trkpt lat="45.26724729516994" lon="9.001619127896532"><ele>95.0</ele><time>2026-04-06T16:15:45.001Z</time></trkpt><trkpt lat="45.267316013513025" lon="9.001648973902968"><ele>95.0</ele><time>2026-04-06T16:15:48.001Z</time></trkpt><trkpt lat="45.26738912201063" lon="9.001680726649768"><ele>95.0</ele><time>2026-04-06T16:15:51.001Z</time></trkpt><trkpt lat="45.26746674041292" lon="9.0017144381502"><ele>95.0</ele><time>2026-04-06T16:15:54.001Z</time></trkpt><trkpt lat="45.26755023113421" lon="9.001750700173263"><ele>95.0</ele><time>2026-04-06T16:15:57.001Z</time></trkpt><trkpt lat="45.267632444040395" lon="9.001786407120425"><ele>95.0</ele><time>2026-04-06T16:16:00.001Z</time></trkpt><trkpt lat="45.26771916127387" lon="9.00180160164777"><ele>95.0</ele><time>2026-04-06T16:16:03.001Z</time></trkpt><trkpt lat="45.26779892828966" lon="9.001857851248111"><ele>95.0</ele><time>2026-04-06T16:16:06.001Z</time></trkpt><trkpt lat="45.2678871794462" lon="9.001895335164651"><ele>95.0</ele><time>2026-04-06T16:16:09.001Z</time></trkpt><trkpt lat="45.26797658416384" lon="9.001933309111958"><ele>95.0</ele><time>2026-04-06T16:16:12.001Z</time></trkpt><trkpt lat="45.26806514985535" lon="9.001971278323575"><ele>94.83333333333334</ele><time>2026-04-06T16:16:15.001Z</time></trkpt><trkpt lat="45.26814682576547" lon="9.002006580488532"><ele>94.66666666666667</ele><time>2026-04-06T16:16:18.001Z</time></trkpt><trkpt lat="45.26822416999529" lon="9.002040010415472"><ele>94.5</ele><time>2026-04-06T16:16:21.001Z</time></trkpt><trkpt lat="45.268308160069616" lon="9.002076807734145"><ele>94.33333333333333</ele><time>2026-04-06T16:16:24.001Z</time></trkpt><trkpt lat="45.26838629003456" lon="9.002112516034126"><ele>94.16666666666666</ele><time>2026-04-06T16:16:27.001Z</time></trkpt><trkpt lat="45.26846221873562" lon="9.002149500728374"><ele>94.0</ele><time>2026-04-06T16:16:30.001Z</time></trkpt><trkpt lat="45.26853189237417" lon="9.002185378112683"><ele>94.0</ele><time>2026-04-06T16:16:33.001Z</time></trkpt><trkpt lat="45.26859960217326" lon="9.002200335175344"><ele>94.0</ele><time>2026-04-06T16:16:37.001Z</time></trkpt><trkpt lat="45.26889512620889" lon="9.001788458920872"><ele>94.16666666666666</ele><time>2026-04-06T16:16:48.001Z</time></trkpt><trkpt lat="45.26894884676228" lon="9.001734869182862"><ele>94.33333333333333</ele><time>2026-04-06T16:16:50.001Z</time></trkpt><trkpt lat="45.26902752013425" lon="9.00165313797197"><ele>94.5</ele><time>2026-04-06T16:16:53.001Z</time></trkpt><trkpt lat="45.269106288190535" lon="9.001586096939533"><ele>94.66666666666667</ele><time>2026-04-06T16:16:56.001Z</time></trkpt><trkpt lat="45.26916452247463" lon="9.001533844385692"><ele>94.83333333333334</ele><time>2026-04-06T16:16:58.001Z</time></trkpt><trkpt lat="45.26922413373209" lon="9.001478761031713"><ele>95.0</ele><time>2026-04-06T16:17:00.001Z</time></trkpt><trkpt lat="45.269286804685294" lon="9.001380700590957"><ele>95.0</ele><time>2026-04-06T16:17:03.001Z</time></trkpt><trkpt lat="45.26934405041859" lon="9.001271572057261"><ele>95.0</ele><time>2026-04-06T16:17:06.001Z</time></trkpt><trkpt lat="45.26938556708987" lon="9.001162881788394"><ele>95.0</ele><time>2026-04-06T16:17:09.001Z</time></trkpt><trkpt lat="45.26942340228221" lon="9.001054897407458"><ele>95.0</ele><time>2026-04-06T16:17:12.001Z</time></trkpt><trkpt lat="45.269467425064924" lon="9.000944174666182"><ele>95.0</ele><time>2026-04-06T16:17:15.001Z</time></trkpt><trkpt lat="45.26950809984674" lon="9.000835013847587"><ele>95.0</ele><time>2026-04-06T16:17:18.001Z</time></trkpt><trkpt lat="45.26955204433105" lon="9.000730025036587"><ele>95.0</ele><time>2026-04-06T16:17:21.001Z</time></trkpt><trkpt lat="45.2695964737463" lon="9.000618647734685"><ele>95.0</ele><time>2026-04-06T16:17:24.001Z</time></trkpt><trkpt lat="45.26963473935194" lon="9.000508032814652"><ele>95.0</ele><time>2026-04-06T16:17:27.001Z</time></trkpt><trkpt lat="45.26967504415737" lon="9.000395165786477"><ele>95.0</ele><time>2026-04-06T16:17:30.001Z</time></trkpt><trkpt lat="45.26972369133425" lon="9.00029174274966"><ele>95.0</ele><time>2026-04-06T16:17:33.001Z</time></trkpt><trkpt lat="45.26977043541257" lon="9.000174465326149"><ele>95.0</ele><time>2026-04-06T16:17:36.001Z</time></trkpt><trkpt lat="45.269805632329934" lon="9.000068580501006"><ele>95.0</ele><time>2026-04-06T16:17:39.001Z</time></trkpt><trkpt lat="45.26984770835451" lon="8.99997359013301"><ele>95.0</ele><time>2026-04-06T16:17:42.001Z</time></trkpt><trkpt lat="45.2698885055089" lon="8.999856479339352"><ele>95.0</ele><time>2026-04-06T16:17:45.001Z</time></trkpt><trkpt lat="45.26993209649447" lon="8.999748873889725"><ele>95.0</ele><time>2026-04-06T16:17:48.002Z</time></trkpt><trkpt lat="45.26997783919395" lon="8.999636456511142"><ele>95.0</ele><time>2026-04-06T16:17:51.002Z</time></trkpt><trkpt lat="45.270021334486394" lon="8.999528393679253"><ele>95.0</ele><time>2026-04-06T16:17:54.002Z</time></trkpt><trkpt lat="45.27005994386024" lon="8.999416145084256"><ele>95.0</ele><time>2026-04-06T16:17:57.002Z</time></trkpt><trkpt lat="45.27010497168586" lon="8.999312257508194"><ele>95.0</ele><time>2026-04-06T16:18:00.002Z</time></trkpt><trkpt lat="45.27014398923336" lon="8.999201546302793"><ele>95.0</ele><time>2026-04-06T16:18:03.002Z</time></trkpt><trkpt lat="45.270188271632726" lon="8.999090615113596"><ele>95.0</ele><time>2026-04-06T16:18:06.002Z</time></trkpt><trkpt lat="45.27022357277462" lon="8.998990920127826"><ele>95.0</ele><time>2026-04-06T16:18:09.001Z</time></trkpt><trkpt lat="45.27026054511328" lon="8.99889364195256"><ele>95.0</ele><time>2026-04-06T16:18:12.001Z</time></trkpt><trkpt lat="45.27030057154556" lon="8.998782908948558"><ele>95.0</ele><time>2026-04-06T16:18:15.001Z</time></trkpt><trkpt lat="45.27034497808461" lon="8.998674198733665"><ele>95.0</ele><time>2026-04-06T16:18:18.001Z</time></trkpt><trkpt lat="45.270381145497026" lon="8.998574023540671"><ele>95.0</ele><time>2026-04-06T16:18:21.001Z</time></trkpt><trkpt lat="45.27041317995294" lon="8.998470027956241"><ele>95.0</ele><time>2026-04-06T16:18:24.001Z</time></trkpt><trkpt lat="45.270454000810346" lon="8.998367584882587"><ele>95.0</ele><time>2026-04-06T16:18:27.001Z</time></trkpt><trkpt lat="45.270497173292775" lon="8.998287516310532"><ele>95.0</ele><time>2026-04-06T16:18:30.001Z</time></trkpt><trkpt lat="45.27053091329136" lon="8.99819364677637"><ele>95.0</ele><time>2026-04-06T16:18:33.001Z</time></trkpt><trkpt lat="45.27057049883306" lon="8.998084161612413"><ele>95.0</ele><time>2026-04-06T16:18:36Z</time></trkpt><trkpt lat="45.27061839356973" lon="8.997979127628808"><ele>95.0</ele><time>2026-04-06T16:18:39Z</time></trkpt><trkpt lat="45.27065550543836" lon="8.9978770075004"><ele>95.0</ele><time>2026-04-06T16:18:42Z</time></trkpt><trkpt lat="45.27069333455703" lon="8.997779131088993"><ele>95.0</ele><time>2026-04-06T16:18:45Z</time></trkpt><trkpt lat="45.27072803774777" lon="8.99768071511284"><ele>95.0</ele><time>2026-04-06T16:18:48Z</time></trkpt><trkpt lat="45.270763855676776" lon="8.997574218125687"><ele>95.0</ele><time>2026-04-06T16:18:51Z</time></trkpt><trkpt lat="45.270810658915906" lon="8.997463973288182"><ele>95.0</ele><time>2026-04-06T16:18:54Z</time></trkpt><trkpt lat="45.27085081786491" lon="8.997359516582094"><ele>95.0</ele><time>2026-04-06T16:18:57Z</time></trkpt><trkpt lat="45.2708890841" lon="8.997260385721118"><ele>95.0</ele><time>2026-04-06T16:19:00Z</time></trkpt><trkpt lat="45.27093263512014" lon="8.997160830230802"><ele>95.0</ele><time>2026-04-06T16:19:03Z</time></trkpt><trkpt lat="45.27096766347258" lon="8.997059191694373"><ele>95.0</ele><time>2026-04-06T16:19:06Z</time></trkpt><trkpt lat="45.27100530467889" lon="8.996958936136089"><ele>95.0</ele><time>2026-04-06T16:19:09Z</time></trkpt><trkpt lat="45.271044808939614" lon="8.996865102050334"><ele>95.0</ele><time>2026-04-06T16:19:12Z</time></trkpt><trkpt lat="45.27108681094997" lon="8.996759808731108"><ele>95.0</ele><time>2026-04-06T16:19:15Z</time></trkpt><trkpt lat="45.271120279676296" lon="8.996680524348816"><ele>95.0</ele><time>2026-04-06T16:19:17Z</time></trkpt><trkpt lat="45.27116390733306" lon="8.99657079498765"><ele>95.0</ele><time>2026-04-06T16:19:20Z</time></trkpt><trkpt lat="45.27121181308854" lon="8.996461852051336"><ele>95.0</ele><time>2026-04-06T16:19:23Z</time></trkpt><trkpt lat="45.27122851131423" lon="8.996335078844352"><ele>95.16666666666667</ele><time>2026-04-06T16:19:26Z</time></trkpt><trkpt lat="45.271190250279865" lon="8.996215252055043"><ele>95.33333333333334</ele><time>2026-04-06T16:19:29Z</time></trkpt><trkpt lat="45.271142496919566" lon="8.996101610030037"><ele>95.5</ele><time>2026-04-06T16:19:32Z</time></trkpt><trkpt lat="45.271084585715" lon="8.996008829301209"><ele>95.66666666666667</ele><time>2026-04-06T16:19:35Z</time></trkpt><trkpt lat="45.271030639221586" lon="8.995940304076825"><ele>95.83333333333333</ele><time>2026-04-06T16:19:38Z</time></trkpt><trkpt lat="45.270991147123425" lon="8.995837788674237"><ele>96.0</ele><time>2026-04-06T16:19:41Z</time></trkpt><trkpt lat="45.27098884492618" lon="8.995718171510346"><ele>96.0</ele><time>2026-04-06T16:19:44Z</time></trkpt><trkpt lat="45.271004544359954" lon="8.995596061593536"><ele>96.0</ele><time>2026-04-06T16:19:47Z</time></trkpt><trkpt lat="45.27101461348265" lon="8.995477614791248"><ele>96.0</ele><time>2026-04-06T16:19:50Z</time></trkpt><trkpt lat="45.2710271923424" lon="8.995366092936992"><ele>96.0</ele><time>2026-04-06T16:19:53.001Z</time></trkpt><trkpt lat="45.27103245270812" lon="8.995265599187427"><ele>96.0</ele><time>2026-04-06T16:19:56.001Z</time></trkpt><trkpt lat="45.271038491613524" lon="8.99516368108735"><ele>96.0</ele><time>2026-04-06T16:20:01.001Z</time></trkpt><trkpt lat="45.27105491371861" lon="8.99506179476522"><ele>95.33333333333333</ele><time>2026-04-06T16:20:06.001Z</time></trkpt><trkpt lat="45.27104101586872" lon="8.994960880577272"><ele>94.66666666666667</ele><time>2026-04-06T16:20:11.001Z</time></trkpt><trkpt lat="45.27098423661195" lon="8.994894814101999"><ele>94.0</ele><time>2026-04-06T16:21:05Z</time></trkpt><trkpt lat="45.27090334161426" lon="8.994885973431911"><ele>93.33333333333334</ele><time>2026-04-06T16:21:07Z</time></trkpt><trkpt lat="45.27079265749035" lon="8.994904610602644"><ele>92.66666666666667</ele><time>2026-04-06T16:21:09Z</time></trkpt><trkpt lat="45.27072833603255" lon="8.994905449818932"><ele>92.0</ele><time>2026-04-06T16:21:10Z</time></trkpt><trkpt lat="45.27066516865289" lon="8.994899608386408"><ele>91.66666666666667</ele><time>2026-04-06T16:21:11Z</time></trkpt><trkpt lat="45.2705515325046" lon="8.994892750797778"><ele>91.33333333333334</ele><time>2026-04-06T16:21:13Z</time></trkpt><trkpt lat="45.27048265371605" lon="8.994898185690417"><ele>91.0</ele><time>2026-04-06T16:21:14Z</time></trkpt><trkpt lat="45.270417616888764" lon="8.994922213092773"><ele>90.66666666666667</ele><time>2026-04-06T16:21:15Z</time></trkpt><trkpt lat="45.270323103116006" lon="8.99495972489615"><ele>90.33333333333333</ele><time>2026-04-06T16:21:16Z</time></trkpt><trkpt lat="45.270254649740316" lon="8.994996282140473"><ele>90.0</ele><time>2026-04-06T16:21:17Z</time></trkpt><trkpt lat="45.27016708978374" lon="8.994994749218085"><ele>90.0</ele><time>2026-04-06T16:21:18Z</time></trkpt><trkpt lat="45.27007640274485" lon="8.994962027153266"><ele>90.0</ele><time>2026-04-06T16:21:19Z</time></trkpt><trkpt lat="45.27000347511637" lon="8.994916281929637"><ele>90.0</ele><time>2026-04-06T16:21:20Z</time></trkpt><trkpt lat="45.26993933630154" lon="8.994902953755728"><ele>90.0</ele><time>2026-04-06T16:21:21Z</time></trkpt><trkpt lat="45.2698277129761" lon="8.994744048990793"><ele>90.0</ele><time>2026-04-06T16:21:22Z</time></trkpt><trkpt lat="45.269736893875155" lon="8.99466273734312"><ele>90.33333333333333</ele><time>2026-04-06T16:21:23Z</time></trkpt><trkpt lat="45.26964635515868" lon="8.994587855081646"><ele>90.66666666666667</ele><time>2026-04-06T16:21:24Z</time></trkpt><trkpt lat="45.26956692041063" lon="8.994527135452717"><ele>91.0</ele><time>2026-04-06T16:21:25Z</time></trkpt><trkpt lat="45.2695024603831" lon="8.994467219557322"><ele>91.33333333333334</ele><time>2026-04-06T16:21:26Z</time></trkpt><trkpt lat="45.26944948475672" lon="8.994401789748057"><ele>91.66666666666667</ele><time>2026-04-06T16:21:27Z</time></trkpt><trkpt lat="45.26938221255228" lon="8.994299906694593"><ele>92.0</ele><time>2026-04-06T16:21:29Z</time></trkpt><trkpt lat="45.2694476262929" lon="8.994363159656178"><ele>92.0</ele><time>2026-04-06T16:21:43Z</time></trkpt><trkpt lat="45.269512282398544" lon="8.994443467307002"><ele>92.0</ele><time>2026-04-06T16:21:46Z</time></trkpt><trkpt lat="45.26957371689864" lon="8.994512234958814"><ele>92.0</ele><time>2026-04-06T16:21:49Z</time></trkpt><trkpt lat="45.26962405217291" lon="8.99456971640415"><ele>92.0</ele><time>2026-04-06T16:21:51Z</time></trkpt><trkpt lat="45.26970317337599" lon="8.994628708847399"><ele>92.0</ele><time>2026-04-06T16:21:54Z</time></trkpt><trkpt lat="45.269775740882636" lon="8.99469647442572"><ele>92.0</ele><time>2026-04-06T16:21:58.002Z</time></trkpt><trkpt lat="45.26984202290182" lon="8.994741624964316"><ele>91.71428571428572</ele><time>2026-04-06T16:22:01.002Z</time></trkpt><trkpt lat="45.26990503660649" lon="8.994797916083668"><ele>91.42857142857142</ele><time>2026-04-06T16:22:04.002Z</time></trkpt><trkpt lat="45.269975695849126" lon="8.994853901118526"><ele>91.14285714285714</ele><time>2026-04-06T16:22:07.002Z</time></trkpt><trkpt lat="45.27003630165881" lon="8.99490345925006"><ele>90.85714285714286</ele><time>2026-04-06T16:22:10.001Z</time></trkpt><trkpt lat="45.27009961165964" lon="8.994934321806657"><ele>90.57142857142858</ele><time>2026-04-06T16:22:13.001Z</time></trkpt><trkpt lat="45.27017074992952" lon="8.994974470929263"><ele>90.28571428571428</ele><time>2026-04-06T16:22:16.001Z</time></trkpt><trkpt lat="45.27023573867724" lon="8.99498370103703"><ele>90.0</ele><time>2026-04-06T16:22:19.001Z</time></trkpt><trkpt lat="45.27029805956348" lon="8.994959409166663"><ele>90.0</ele><time>2026-04-06T16:22:22.001Z</time></trkpt><trkpt lat="45.27036008650987" lon="8.994925139890867"><ele>90.0</ele><time>2026-04-06T16:22:26.001Z</time></trkpt><trkpt lat="45.27029455034161" lon="8.994944780683912"><ele>90.0</ele><time>2026-04-06T16:22:37.001Z</time></trkpt><trkpt lat="45.270217906925645" lon="8.994951236884987"><ele>90.0</ele><time>2026-04-06T16:23:07.001Z</time></trkpt><trkpt lat="45.2701707688359" lon="8.995054669224492"><ele>90.0</ele><time>2026-04-06T16:23:10.001Z</time></trkpt><trkpt lat="45.27006766996126" lon="8.995028496431113"><ele>90.0</ele><time>2026-04-06T16:23:12Z</time></trkpt><trkpt lat="45.2699964426409" lon="8.994975182198184"><ele>90.0</ele><time>2026-04-06T16:23:13Z</time></trkpt><trkpt lat="45.26990957241466" lon="8.994871090835016"><ele>90.0</ele><time>2026-04-06T16:23:15Z</time></trkpt><trkpt lat="45.269833807618774" lon="8.994821636635157"><ele>90.0</ele><time>2026-04-06T16:23:17Z</time></trkpt><trkpt lat="45.26978268690581" lon="8.994759079965608"><ele>90.0</ele><time>2026-04-06T16:23:18Z</time></trkpt><trkpt lat="45.269712552949926" lon="8.994682985158155"><ele>90.0</ele><time>2026-04-06T16:23:19Z</time></trkpt><trkpt lat="45.26965485735053" lon="8.994629717631977"><ele>90.0</ele><time>2026-04-06T16:23:20Z</time></trkpt><trkpt lat="45.269579606247596" lon="8.994586122791572"><ele>90.33333333333333</ele><time>2026-04-06T16:23:22Z</time></trkpt><trkpt lat="45.26951271453229" lon="8.994496864667367"><ele>90.66666666666667</ele><time>2026-04-06T16:23:24Z</time></trkpt><trkpt lat="45.269461997146145" lon="8.994403724786988"><ele>91.0</ele><time>2026-04-06T16:23:25Z</time></trkpt><trkpt lat="45.26942187915114" lon="8.994332152623805"><ele>91.33333333333334</ele><time>2026-04-06T16:23:30Z</time></trkpt><trkpt lat="45.269386274842816" lon="8.994415314570157"><ele>91.66666666666667</ele><time>2026-04-06T16:23:34Z</time></trkpt><trkpt lat="45.26934045794498" lon="8.994485992736886"><ele>92.0</ele><time>2026-04-06T16:23:43.034Z</time></trkpt><trkpt lat="45.26938881782924" lon="8.994630917231932"><ele>92.0</ele><time>2026-04-06T16:24:00.032Z</time></trkpt><trkpt lat="45.26953205508152" lon="8.994588914005929"><ele>92.0</ele><time>2026-04-06T16:24:07.029Z</time></trkpt><trkpt lat="45.26960014430181" lon="8.99456653145089"><ele>92.0</ele><time>2026-04-06T16:24:14.031Z</time></trkpt><trkpt lat="45.26953291997647" lon="8.994526281352655"><ele>92.0</ele><time>2026-04-06T16:24:34.022Z</time></trkpt><trkpt lat="45.2694027005405" lon="8.994306347988772"><ele>92.0</ele><time>2026-04-06T16:24:58.001Z</time></trkpt><trkpt lat="45.26934590724888" lon="8.994231712755713"><ele>92.0</ele><time>2026-04-06T16:25:35Z</time></trkpt><trkpt lat="45.269283999598926" lon="8.994137884196276"><ele>92.0</ele><time>2026-04-06T16:25:39Z</time></trkpt><trkpt lat="45.269231191512176" lon="8.994053823703203"><ele>92.0</ele><time>2026-04-06T16:25:42Z</time></trkpt><trkpt lat="45.26918787822685" lon="8.993969060447132"><ele>92.0</ele><time>2026-04-06T16:25:45Z</time></trkpt><trkpt lat="45.26915373235652" lon="8.99386617853021"><ele>92.0</ele><time>2026-04-06T16:25:48Z</time></trkpt><trkpt lat="45.26912860356506" lon="8.993748195979135"><ele>90.28571428571429</ele><time>2026-04-06T16:25:51Z</time></trkpt><trkpt lat="45.26912731564985" lon="8.993633084611588"><ele>88.57142857142857</ele><time>2026-04-06T16:25:54Z</time></trkpt><trkpt lat="45.26913093824231" lon="8.993519877242457"><ele>86.85714285714286</ele><time>2026-04-06T16:25:57Z</time></trkpt><trkpt lat="45.26912198102568" lon="8.993422586773091"><ele>85.14285714285714</ele><time>2026-04-06T16:26:00Z</time></trkpt><trkpt lat="45.2690842371401" lon="8.993345545020086"><ele>83.42857142857143</ele><time>2026-04-06T16:26:03Z</time></trkpt><trkpt lat="45.269043824665296" lon="8.993257972268978"><ele>81.71428571428571</ele><time>2026-04-06T16:26:06Z</time></trkpt><trkpt lat="45.269003910918215" lon="8.99316629789658"><ele>80.0</ele><time>2026-04-06T16:26:09Z</time></trkpt><trkpt lat="45.26895561728449" lon="8.993076427140341"><ele>79.66666666666667</ele><time>2026-04-06T16:26:12Z</time></trkpt><trkpt lat="45.26890654388831" lon="8.992988431577858"><ele>79.33333333333334</ele><time>2026-04-06T16:26:15Z</time></trkpt><trkpt lat="45.26885792247253" lon="8.992904394863901"><ele>79.0</ele><time>2026-04-06T16:26:18Z</time></trkpt><trkpt lat="45.26881942745183" lon="8.992816246132163"><ele>78.66666666666667</ele><time>2026-04-06T16:26:21Z</time></trkpt><trkpt lat="45.26877165418572" lon="8.992727881522601"><ele>78.33333333333333</ele><time>2026-04-06T16:26:24Z</time></trkpt><trkpt lat="45.26872948691848" lon="8.992645378807426"><ele>78.0</ele><time>2026-04-06T16:26:27Z</time></trkpt><trkpt lat="45.268689153641596" lon="8.992559974698745"><ele>77.33333333333333</ele><time>2026-04-06T16:26:30Z</time></trkpt><trkpt lat="45.268648408592384" lon="8.992469619449281"><ele>76.66666666666667</ele><time>2026-04-06T16:26:33Z</time></trkpt><trkpt lat="45.2685974307471" lon="8.992380640870119"><ele>76.0</ele><time>2026-04-06T16:26:36Z</time></trkpt><trkpt lat="45.268547114116885" lon="8.99228235964357"><ele>75.33333333333334</ele><time>2026-04-06T16:26:39Z</time></trkpt><trkpt lat="45.26850483838395" lon="8.992168710993905"><ele>74.66666666666667</ele><time>2026-04-06T16:26:42Z</time></trkpt><trkpt lat="45.26845886367403" lon="8.992063317083076"><ele>74.0</ele><time>2026-04-06T16:26:45Z</time></trkpt><trkpt lat="45.268456255101285" lon="8.991954669204524"><ele>74.0</ele><time>2026-04-06T16:26:47Z</time></trkpt><trkpt lat="45.26848409054023" lon="8.991861047182075"><ele>74.0</ele><time>2026-04-06T16:26:50.001Z</time></trkpt><trkpt lat="45.26848973722318" lon="8.991754422426668"><ele>74.0</ele><time>2026-04-06T16:26:53.001Z</time></trkpt><trkpt lat="45.26849149982279" lon="8.991634493821108"><ele>74.0</ele><time>2026-04-06T16:26:56.001Z</time></trkpt><trkpt lat="45.26849047168346" lon="8.991539239656571"><ele>74.0</ele><time>2026-04-06T16:26:58.001Z</time></trkpt><trkpt lat="45.26847339508066" lon="8.991411222732786"><ele>74.0</ele><time>2026-04-06T16:27:01.001Z</time></trkpt><trkpt lat="45.26844587204444" lon="8.991307923905936"><ele>73.83333333333334</ele><time>2026-04-06T16:27:03.001Z</time></trkpt><trkpt lat="45.268436645979136" lon="8.99119669159935"><ele>73.66666666666667</ele><time>2026-04-06T16:27:06.001Z</time></trkpt><trkpt lat="45.268483676787" lon="8.9910937062227"><ele>73.5</ele><time>2026-04-06T16:27:09.001Z</time></trkpt><trkpt lat="45.268553948571764" lon="8.991057482383349"><ele>73.33333333333333</ele><time>2026-04-06T16:27:12.001Z</time></trkpt><trkpt lat="45.26862551705985" lon="8.991007788499346"><ele>73.16666666666666</ele><time>2026-04-06T16:27:15Z</time></trkpt><trkpt lat="45.268698684796014" lon="8.990948419795853"><ele>73.0</ele><time>2026-04-06T16:27:18Z</time></trkpt><trkpt lat="45.26876965347639" lon="8.99088786071693"><ele>73.16666666666666</ele><time>2026-04-06T16:27:21Z</time></trkpt><trkpt lat="45.268842802495676" lon="8.990823410340793"><ele>73.33333333333333</ele><time>2026-04-06T16:27:24Z</time></trkpt><trkpt lat="45.26891611000337" lon="8.990769532594378"><ele>73.5</ele><time>2026-04-06T16:27:27Z</time></trkpt><trkpt lat="45.26898817330884" lon="8.990709682188484"><ele>73.66666666666667</ele><time>2026-04-06T16:27:30Z</time></trkpt><trkpt lat="45.26906386944497" lon="8.990651482534266"><ele>73.83333333333334</ele><time>2026-04-06T16:27:33Z</time></trkpt><trkpt lat="45.26913351524132" lon="8.99057764396668"><ele>74.0</ele><time>2026-04-06T16:27:36Z</time></trkpt><trkpt lat="45.2692087524737" lon="8.990513019633068"><ele>73.71428571428572</ele><time>2026-04-06T16:27:39Z</time></trkpt><trkpt lat="45.26927599174059" lon="8.990458152658748"><ele>73.42857142857143</ele><time>2026-04-06T16:27:42Z</time></trkpt><trkpt lat="45.26933340303846" lon="8.990399264025873"><ele>73.14285714285714</ele><time>2026-04-06T16:27:45Z</time></trkpt><trkpt lat="45.26939781556403" lon="8.990330454875773"><ele>72.85714285714286</ele><time>2026-04-06T16:27:48Z</time></trkpt><trkpt lat="45.26946785467487" lon="8.990283844364557"><ele>72.57142857142857</ele><time>2026-04-06T16:27:51Z</time></trkpt><trkpt lat="45.26952892625305" lon="8.990234157286057"><ele>72.28571428571429</ele><time>2026-04-06T16:27:54Z</time></trkpt><trkpt lat="45.26958563517265" lon="8.990179739571257"><ele>72.0</ele><time>2026-04-06T16:27:57Z</time></trkpt><trkpt lat="45.269658321177" lon="8.990135093872897"><ele>72.00000000000001</ele><time>2026-04-06T16:28:01Z</time></trkpt><trkpt lat="45.26970817117538" lon="8.990055343219732"><ele>72.0</ele><time>2026-04-06T16:28:05Z</time></trkpt><trkpt lat="45.26972279314825" lon="8.989953054689655"><ele>72.0</ele><time>2026-04-06T16:28:10Z</time></trkpt><trkpt lat="45.269710899983494" lon="8.98984302018027"><ele>72.0</ele><time>2026-04-06T16:28:17Z</time></trkpt><trkpt lat="45.26967431589309" lon="8.989764463064443"><ele>72.0</ele><time>2026-04-06T16:29:40Z</time></trkpt><trkpt lat="45.269625804996515" lon="8.989690622819108"><ele>72.00000000000001</ele><time>2026-04-06T16:29:48Z</time></trkpt><trkpt lat="45.26959755809243" lon="8.989605016063173"><ele>72.0</ele><time>2026-04-06T16:29:53Z</time></trkpt><trkpt lat="45.269564182775355" lon="8.989509368673767"><ele>71.85714285714286</ele><time>2026-04-06T16:29:59Z</time></trkpt><trkpt lat="45.26952366734256" lon="8.98942336215652"><ele>71.71428571428572</ele><time>2026-04-06T16:30:03Z</time></trkpt><trkpt lat="45.26949269475496" lon="8.989343014837651"><ele>71.57142857142857</ele><time>2026-04-06T16:30:07Z</time></trkpt><trkpt lat="45.26945664567028" lon="8.98926164063484"><ele>71.42857142857143</ele><time>2026-04-06T16:30:11Z</time></trkpt><trkpt lat="45.269425234009816" lon="8.98916812162101"><ele>71.28571428571428</ele><time>2026-04-06T16:30:15Z</time></trkpt><trkpt lat="45.26938861627951" lon="8.98908241298971"><ele>71.14285714285714</ele><time>2026-04-06T16:30:19Z</time></trkpt><trkpt lat="45.269349325049404" lon="8.988982702615171"><ele>71.0</ele><time>2026-04-06T16:30:24Z</time></trkpt><trkpt lat="45.26932141592821" lon="8.988898375220728"><ele>71.28571428571428</ele><time>2026-04-06T16:30:29Z</time></trkpt><trkpt lat="45.2693613740731" lon="8.988822323609647"><ele>71.57142857142857</ele><time>2026-04-06T16:30:47Z</time></trkpt><trkpt lat="45.269401471125974" lon="8.988740357749874"><ele>71.85714285714286</ele><time>2026-04-06T16:30:52.999Z</time></trkpt><trkpt lat="45.26944471391722" lon="8.988659922105992"><ele>72.14285714285714</ele><time>2026-04-06T16:30:57.999Z</time></trkpt><trkpt lat="45.26948453568995" lon="8.98857289835246"><ele>72.42857142857143</ele><time>2026-04-06T16:31:03.001Z</time></trkpt><trkpt lat="45.269540846951955" lon="8.988527515332397"><ele>72.71428571428571</ele><time>2026-04-06T16:31:07.001Z</time></trkpt><trkpt lat="45.26961992247761" lon="8.98852605322181"><ele>73.0</ele><time>2026-04-06T16:31:11.001Z</time></trkpt><trkpt lat="45.269675953965525" lon="8.988453376191936"><ele>73.0</ele><time>2026-04-06T16:31:15.001Z</time></trkpt><trkpt lat="45.2697402837184" lon="8.988397712814324"><ele>73.0</ele><time>2026-04-06T16:31:20.001Z</time></trkpt><trkpt lat="45.2697972178012" lon="8.988356532161273"><ele>73.0</ele><time>2026-04-06T16:31:24.001Z</time></trkpt><trkpt lat="45.2698665873098" lon="8.988306455558083"><ele>73.0</ele><time>2026-04-06T16:31:28.001Z</time></trkpt><trkpt lat="45.26993684347527" lon="8.988267646292654"><ele>73.0</ele><time>2026-04-06T16:31:32.001Z</time></trkpt><trkpt lat="45.26999685388772" lon="8.988201194218714"><ele>73.0</ele><time>2026-04-06T16:31:36.001Z</time></trkpt><trkpt lat="45.270073046420926" lon="8.988180112866152"><ele>73.0</ele><time>2026-04-06T16:31:40Z</time></trkpt><trkpt lat="45.270132749494714" lon="8.988141341784031"><ele>73.42857142857143</ele><time>2026-04-06T16:31:44Z</time></trkpt><trkpt lat="45.27020169555816" lon="8.988113663194982"><ele>73.85714285714286</ele><time>2026-04-06T16:31:49Z</time></trkpt><trkpt lat="45.27027034380324" lon="8.988099957754779"><ele>74.28571428571428</ele><time>2026-04-06T16:31:53Z</time></trkpt><trkpt lat="45.27033985563377" lon="8.988077596999418"><ele>74.71428571428572</ele><time>2026-04-06T16:31:57Z</time></trkpt><trkpt lat="45.27039922259637" lon="8.98803393378135"><ele>75.14285714285715</ele><time>2026-04-06T16:32:01Z</time></trkpt><trkpt lat="45.27047212902926" lon="8.988004347226909"><ele>75.57142857142857</ele><time>2026-04-06T16:32:08Z</time></trkpt><trkpt lat="45.270542521436475" lon="8.988019604082137"><ele>76.0</ele><time>2026-04-06T16:32:12Z</time></trkpt><trkpt lat="45.27059111464691" lon="8.98792994203265"><ele>76.0</ele><time>2026-04-06T16:32:16.999Z</time></trkpt><trkpt lat="45.27063648328006" lon="8.987858645958989"><ele>76.0</ele><time>2026-04-06T16:32:20.999Z</time></trkpt><trkpt lat="45.27070989936679" lon="8.987851050627944"><ele>76.0</ele><time>2026-04-06T16:32:24.999Z</time></trkpt><trkpt lat="45.27077549060372" lon="8.987874655206799"><ele>76.0</ele><time>2026-04-06T16:32:28.999Z</time></trkpt><trkpt lat="45.27084733931652" lon="8.987894468171227"><ele>76.0</ele><time>2026-04-06T16:32:32.999Z</time></trkpt><trkpt lat="45.27091102439773" lon="8.987911701356749"><ele>76.0</ele><time>2026-04-06T16:32:36.999Z</time></trkpt><trkpt lat="45.27098260566604" lon="8.987879733740469"><ele>76.0</ele><time>2026-04-06T16:32:39.999Z</time></trkpt><trkpt lat="45.27102126808253" lon="8.987808785020842"><ele>76.0</ele><time>2026-04-06T16:32:42.999Z</time></trkpt><trkpt lat="45.271059781154534" lon="8.987716976736632"><ele>76.0</ele><time>2026-04-06T16:32:46.999Z</time></trkpt><trkpt lat="45.271133762103176" lon="8.987682263375834"><ele>76.0</ele><time>2026-04-06T16:32:50.999Z</time></trkpt><trkpt lat="45.27120392240045" lon="8.98764671616211"><ele>76.0</ele><time>2026-04-06T16:32:54.999Z</time></trkpt><trkpt lat="45.271246540319154" lon="8.987574426835584"><ele>76.0</ele><time>2026-04-06T16:32:57.999Z</time></trkpt><trkpt lat="45.27131904675731" lon="8.987580088878099"><ele>76.0</ele><time>2026-04-06T16:33:01.999Z</time></trkpt><trkpt lat="45.271382183452886" lon="8.987569622931662"><ele>76.0</ele><time>2026-04-06T16:33:04.999Z</time></trkpt><trkpt lat="45.271455393175415" lon="8.987562516496133"><ele>75.71428571428571</ele><time>2026-04-06T16:33:09Z</time></trkpt><trkpt lat="45.27148002858998" lon="8.987465235445011"><ele>75.42857142857143</ele><time>2026-04-06T16:33:16Z</time></trkpt><trkpt lat="45.27145142825034" lon="8.987366985868903"><ele>75.14285714285714</ele><time>2026-04-06T16:33:21Z</time></trkpt><trkpt lat="45.27149085517632" lon="8.98728432511619"><ele>74.85714285714286</ele><time>2026-04-06T16:33:25Z</time></trkpt><trkpt lat="45.271553124966" lon="8.98720742251291"><ele>74.57142857142857</ele><time>2026-04-06T16:33:29Z</time></trkpt><trkpt lat="45.271619983004996" lon="8.987245933702166"><ele>74.28571428571429</ele><time>2026-04-06T16:33:33Z</time></trkpt><trkpt lat="45.27166794770049" lon="8.987309939864012"><ele>74.0</ele><time>2026-04-06T16:33:37Z</time></trkpt><trkpt lat="45.27166118419589" lon="8.987419963331398"><ele>74.0</ele><time>2026-04-06T16:33:59.999Z</time></trkpt><trkpt lat="45.27171500332397" lon="8.987483436885423"><ele>74.0</ele><time>2026-04-06T16:34:04.999Z</time></trkpt><trkpt lat="45.271793424634474" lon="8.987517796011435"><ele>74.0</ele><time>2026-04-06T16:34:09.999Z</time></trkpt><trkpt lat="45.271859120723136" lon="8.98748571166715"><ele>74.0</ele><time>2026-04-06T16:34:13.999Z</time></trkpt><trkpt lat="45.27192084592292" lon="8.98744347256701"><ele>74.0</ele><time>2026-04-06T16:34:17.999Z</time></trkpt><trkpt lat="45.27198233401" lon="8.987388121520379"><ele>74.0</ele><time>2026-04-06T16:34:21.999Z</time></trkpt><trkpt lat="45.27205172364569" lon="8.987323360690736"><ele>74.0</ele><time>2026-04-06T16:34:25.999Z</time></trkpt><trkpt lat="45.27211046364622" lon="8.987269240070445"><ele>74.0</ele><time>2026-04-06T16:34:28.999Z</time></trkpt><trkpt lat="45.27216483925594" lon="8.98720748759374"><ele>74.0</ele><time>2026-04-06T16:34:31.999Z</time></trkpt><trkpt lat="45.272221560965455" lon="8.987141761258188"><ele>74.0</ele><time>2026-04-06T16:34:34.999Z</time></trkpt><trkpt lat="45.27228626645211" lon="8.987092830491006"><ele>74.0</ele><time>2026-04-06T16:34:37.999Z</time></trkpt><trkpt lat="45.27234086657059" lon="8.98704738479142"><ele>74.0</ele><time>2026-04-06T16:34:40.999Z</time></trkpt><trkpt lat="45.27241332354136" lon="8.987016242857356"><ele>74.0</ele><time>2026-04-06T16:34:43.999Z</time></trkpt><trkpt lat="45.27249420906284" lon="8.986990008127544"><ele>74.0</ele><time>2026-04-06T16:34:47.999Z</time></trkpt><trkpt lat="45.27255744061736" lon="8.986958270838265"><ele>74.0</ele><time>2026-04-06T16:34:50.999Z</time></trkpt><trkpt lat="45.272623978720574" lon="8.986895377824146"><ele>74.0</ele><time>2026-04-06T16:34:53.999Z</time></trkpt><trkpt lat="45.272676362405804" lon="8.986813988783622"><ele>74.0</ele><time>2026-04-06T16:34:56.999Z</time></trkpt><trkpt lat="45.272735016700544" lon="8.986724967194778"><ele>74.0</ele><time>2026-04-06T16:34:59.999Z</time></trkpt><trkpt lat="45.272772420192695" lon="8.986613523621823"><ele>74.0</ele><time>2026-04-06T16:35:02.999Z</time></trkpt><trkpt lat="45.272802241907776" lon="8.986509158627799"><ele>74.0</ele><time>2026-04-06T16:35:05.999Z</time></trkpt><trkpt lat="45.272829332214" lon="8.986402717164651"><ele>74.0</ele><time>2026-04-06T16:35:08.999Z</time></trkpt><trkpt lat="45.27285107438382" lon="8.98631816013262"><ele>74.0</ele><time>2026-04-06T16:35:10.999Z</time></trkpt><trkpt lat="45.272880496958905" lon="8.986194260151771"><ele>74.0</ele><time>2026-04-06T16:35:14Z</time></trkpt><trkpt lat="45.2729049256138" lon="8.98610565834922"><ele>74.0</ele><time>2026-04-06T16:35:16Z</time></trkpt><trkpt lat="45.27293462771626" lon="8.986020871869359"><ele>74.0</ele><time>2026-04-06T16:35:18Z</time></trkpt><trkpt lat="45.27296615956923" lon="8.985939317846544"><ele>74.0</ele><time>2026-04-06T16:35:20Z</time></trkpt><trkpt lat="45.27300593806023" lon="8.98583609270153"><ele>74.0</ele><time>2026-04-06T16:35:23Z</time></trkpt><trkpt lat="45.27306734462381" lon="8.985755589409889"><ele>73.83333333333334</ele><time>2026-04-06T16:35:25Z</time></trkpt><trkpt lat="45.273097192146075" lon="8.985662094200483"><ele>73.66666666666667</ele><time>2026-04-06T16:35:28Z</time></trkpt><trkpt lat="45.27313818460928" lon="8.985569803214325"><ele>73.5</ele><time>2026-04-06T16:35:32Z</time></trkpt><trkpt lat="45.273172451635354" lon="8.985492787485475"><ele>73.33333333333333</ele><time>2026-04-06T16:35:35Z</time></trkpt><trkpt lat="45.27320359079487" lon="8.985391648545075"><ele>73.16666666666666</ele><time>2026-04-06T16:35:38Z</time></trkpt><trkpt lat="45.273233220593944" lon="8.9852842403051"><ele>73.0</ele><time>2026-04-06T16:35:41Z</time></trkpt><trkpt lat="45.27324045714461" lon="8.985174520049819"><ele>73.0</ele><time>2026-04-06T16:35:44Z</time></trkpt><trkpt lat="45.27327322856119" lon="8.985063558628152"><ele>73.0</ele><time>2026-04-06T16:35:47Z</time></trkpt><trkpt lat="45.27332935823227" lon="8.984994287031626"><ele>73.0</ele><time>2026-04-06T16:35:50Z</time></trkpt><trkpt lat="45.27338736564779" lon="8.984928464970261"><ele>73.0</ele><time>2026-04-06T16:35:53Z</time></trkpt><trkpt lat="45.27345019117425" lon="8.984866240254327"><ele>73.0</ele><time>2026-04-06T16:35:56Z</time></trkpt><trkpt lat="45.2735116218246" lon="8.984779676390714"><ele>73.0</ele><time>2026-04-06T16:35:59Z</time></trkpt><trkpt lat="45.27357412171338" lon="8.98469133123293"><ele>72.83333333333333</ele><time>2026-04-06T16:36:01.999Z</time></trkpt><trkpt lat="45.273623363007125" lon="8.984628064317995"><ele>72.66666666666666</ele><time>2026-04-06T16:36:03.999Z</time></trkpt><trkpt lat="45.27369405068574" lon="8.984549116581379"><ele>72.5</ele><time>2026-04-06T16:36:06.999Z</time></trkpt><trkpt lat="45.2737377316349" lon="8.984477255016673"><ele>72.33333333333333</ele><time>2026-04-06T16:36:08.999Z</time></trkpt><trkpt lat="45.27379615800995" lon="8.98436867679988"><ele>72.16666666666667</ele><time>2026-04-06T16:36:11.999Z</time></trkpt><trkpt lat="45.27384645331089" lon="8.984253475650116"><ele>72.0</ele><time>2026-04-06T16:36:14.999Z</time></trkpt><trkpt lat="45.27388389788441" lon="8.984174584052361"><ele>72.14285714285715</ele><time>2026-04-06T16:36:16.999Z</time></trkpt><trkpt lat="45.27392252489934" lon="8.984093555656319"><ele>72.28571428571429</ele><time>2026-04-06T16:36:18.999Z</time></trkpt><trkpt lat="45.27396262828472" lon="8.984018646055297"><ele>72.42857142857143</ele><time>2026-04-06T16:36:20.999Z</time></trkpt><trkpt lat="45.27400230686533" lon="8.983946473337895"><ele>72.57142857142858</ele><time>2026-04-06T16:36:22.999Z</time></trkpt><trkpt lat="45.27405494928697" lon="8.983844641960866"><ele>72.71428571428572</ele><time>2026-04-06T16:36:25.999Z</time></trkpt><trkpt lat="45.27410025148808" lon="8.983772564481535"><ele>72.85714285714286</ele><time>2026-04-06T16:36:27.999Z</time></trkpt><trkpt lat="45.2741435864552" lon="8.98370747403052"><ele>73.0</ele><time>2026-04-06T16:36:29.999Z</time></trkpt><trkpt lat="45.27420823354097" lon="8.983631644228534"><ele>73.0</ele><time>2026-04-06T16:36:32.999Z</time></trkpt><trkpt lat="45.27428518716435" lon="8.983575170666375"><ele>73.0</ele><time>2026-04-06T16:36:35.999Z</time></trkpt><trkpt lat="45.27436770734478" lon="8.983528174687887"><ele>73.0</ele><time>2026-04-06T16:36:38.999Z</time></trkpt><trkpt lat="45.27445232642846" lon="8.983519105949544"><ele>73.0</ele><time>2026-04-06T16:36:41.999Z</time></trkpt><trkpt lat="45.274530763000854" lon="8.983513636304808"><ele>73.0</ele><time>2026-04-06T16:36:44.999Z</time></trkpt><trkpt lat="45.2746107497358" lon="8.983483477945478"><ele>73.0</ele><time>2026-04-06T16:36:47.999Z</time></trkpt><trkpt lat="45.27469402840323" lon="8.983462028303734"><ele>73.16666666666666</ele><time>2026-04-06T16:36:50.999Z</time></trkpt><trkpt lat="45.27477387589653" lon="8.983426827437635"><ele>73.33333333333333</ele><time>2026-04-06T16:36:53.999Z</time></trkpt><trkpt lat="45.27485523273039" lon="8.983403810138839"><ele>73.5</ele><time>2026-04-06T16:36:56.999Z</time></trkpt><trkpt lat="45.27492821395014" lon="8.983373153377716"><ele>73.66666666666667</ele><time>2026-04-06T16:36:59.999Z</time></trkpt><trkpt lat="45.274987878470824" lon="8.983343546467138"><ele>73.83333333333334</ele><time>2026-04-06T16:37:02.999Z</time></trkpt><trkpt lat="45.275055174660594" lon="8.983335324998345"><ele>74.0</ele><time>2026-04-06T16:37:06.999Z</time></trkpt><trkpt lat="45.27512910023246" lon="8.98329262241022"><ele>74.0</ele><time>2026-04-06T16:37:11.999Z</time></trkpt><trkpt lat="45.27519649526408" lon="8.98323862390071"><ele>74.0</ele><time>2026-04-06T16:37:15.999Z</time></trkpt><trkpt lat="45.275239074256596" lon="8.983170966830762"><ele>74.0</ele><time>2026-04-06T16:37:19Z</time></trkpt><trkpt lat="45.27526069528128" lon="8.983085039565267"><ele>74.0</ele><time>2026-04-06T16:37:21Z</time></trkpt><trkpt lat="45.27525623966979" lon="8.98299539603382"><ele>74.0</ele><time>2026-04-06T16:37:38Z</time></trkpt><trkpt lat="45.27524680680917" lon="8.982898019819888"><ele>74.0</ele><time>2026-04-06T16:38:36.999Z</time></trkpt><trkpt lat="45.27524180116124" lon="8.982789104431125"><ele>74.0</ele><time>2026-04-06T16:38:41.999Z</time></trkpt><trkpt lat="45.275236717596066" lon="8.982686661378533"><ele>74.0</ele><time>2026-04-06T16:38:44.999Z</time></trkpt><trkpt lat="45.275230810209344" lon="8.982586620257011"><ele>74.0</ele><time>2026-04-06T16:38:48.999Z</time></trkpt><trkpt lat="45.275249188196796" lon="8.982499363893513"><ele>74.0</ele><time>2026-04-06T16:38:52.999Z</time></trkpt><trkpt lat="45.2752993726331" lon="8.982417387174777"><ele>74.0</ele><time>2026-04-06T16:38:55.999Z</time></trkpt><trkpt lat="45.275344591804526" lon="8.982352739130318"><ele>74.0</ele><time>2026-04-06T16:38:58.999Z</time></trkpt><trkpt lat="45.27539019874188" lon="8.982283819164559"><ele>74.0</ele><time>2026-04-06T16:39:01.999Z</time></trkpt><trkpt lat="45.27544879159787" lon="8.982204248880743"><ele>74.0</ele><time>2026-04-06T16:39:04.999Z</time></trkpt><trkpt lat="45.27550665494632" lon="8.982137335801278"><ele>73.66666666666667</ele><time>2026-04-06T16:39:07.999Z</time></trkpt><trkpt lat="45.275566001003085" lon="8.982078113529534"><ele>73.33333333333334</ele><time>2026-04-06T16:39:11.999Z</time></trkpt><trkpt lat="45.27563142908012" lon="8.982007213221923"><ele>73.0</ele><time>2026-04-06T16:39:14.999Z</time></trkpt><trkpt lat="45.27570899083805" lon="8.981960552523878"><ele>72.66666666666667</ele><time>2026-04-06T16:39:17.999Z</time></trkpt><trkpt lat="45.27579387705894" lon="8.981912613591247"><ele>72.33333333333333</ele><time>2026-04-06T16:39:20.999Z</time></trkpt><trkpt lat="45.275875619949545" lon="8.981878752467841"><ele>72.0</ele><time>2026-04-06T16:39:24Z</time></trkpt><trkpt lat="45.27595881579673" lon="8.981846839910496"><ele>72.0</ele><time>2026-04-06T16:39:27Z</time></trkpt><trkpt lat="45.27604758559022" lon="8.981816506748299"><ele>72.0</ele><time>2026-04-06T16:39:30Z</time></trkpt><trkpt lat="45.276138814030304" lon="8.981803141422564"><ele>72.0</ele><time>2026-04-06T16:39:33Z</time></trkpt><trkpt lat="45.276219339721145" lon="8.981749363185516"><ele>72.0</ele><time>2026-04-06T16:39:36Z</time></trkpt><trkpt lat="45.27630277982779" lon="8.981721209836012"><ele>72.0</ele><time>2026-04-06T16:39:39Z</time></trkpt><trkpt lat="45.2763925870048" lon="8.98172769819148"><ele>72.0</ele><time>2026-04-06T16:39:42Z</time></trkpt><trkpt lat="45.2764739822107" lon="8.981744940635453"><ele>72.0</ele><time>2026-04-06T16:39:45Z</time></trkpt><trkpt lat="45.276542782829985" lon="8.981752953740687"><ele>72.0</ele><time>2026-04-06T16:39:48Z</time></trkpt><trkpt lat="45.27661269901917" lon="8.981767937955057"><ele>72.0</ele><time>2026-04-06T16:39:52Z</time></trkpt><trkpt lat="45.276673852266576" lon="8.981792171059029"><ele>72.0</ele><time>2026-04-06T16:39:55Z</time></trkpt><trkpt lat="45.27677382072582" lon="8.981807338211098"><ele>72.0</ele><time>2026-04-06T16:39:59Z</time></trkpt><trkpt lat="45.276858504063306" lon="8.98179692717993"><ele>72.0</ele><time>2026-04-06T16:40:02Z</time></trkpt><trkpt lat="45.27693885830673" lon="8.98177884992975"><ele>72.0</ele><time>2026-04-06T16:40:05Z</time></trkpt><trkpt lat="45.277024447276794" lon="8.981758185331447"><ele>72.0</ele><time>2026-04-06T16:40:08Z</time></trkpt><trkpt lat="45.277117825694155" lon="8.981728028901838"><ele>72.0</ele><time>2026-04-06T16:40:11Z</time></trkpt><trkpt lat="45.277178572341086" lon="8.981703798283954"><ele>72.0</ele><time>2026-04-06T16:40:13Z</time></trkpt><trkpt lat="45.2772627375035" lon="8.981662195689701"><ele>72.0</ele><time>2026-04-06T16:40:16Z</time></trkpt><trkpt lat="45.27733670298912" lon="8.98161719857056"><ele>72.0</ele><time>2026-04-06T16:40:18Z</time></trkpt><trkpt lat="45.277410895290686" lon="8.98155775087093"><ele>71.57142857142858</ele><time>2026-04-06T16:40:20Z</time></trkpt><trkpt lat="45.27746584881751" lon="8.98148577262338"><ele>71.14285714285714</ele><time>2026-04-06T16:40:22Z</time></trkpt><trkpt lat="45.277520751781275" lon="8.981405105855611"><ele>70.71428571428572</ele><time>2026-04-06T16:40:24Z</time></trkpt><trkpt lat="45.27755610466393" lon="8.98132869335994"><ele>70.28571428571429</ele><time>2026-04-06T16:40:26Z</time></trkpt><trkpt lat="45.2776072272201" lon="8.981225770744105"><ele>69.85714285714286</ele><time>2026-04-06T16:40:29Z</time></trkpt><trkpt lat="45.27764169051337" lon="8.98114920477339"><ele>69.42857142857143</ele><time>2026-04-06T16:40:30.999Z</time></trkpt><trkpt lat="45.27767797454089" lon="8.981073477988424"><ele>69.0</ele><time>2026-04-06T16:40:32.999Z</time></trkpt><trkpt lat="45.277715229071454" lon="8.980998760677052"><ele>69.0</ele><time>2026-04-06T16:40:34.999Z</time></trkpt><trkpt lat="45.27775773314672" lon="8.980903365686633"><ele>69.0</ele><time>2026-04-06T16:40:37.999Z</time></trkpt><trkpt lat="45.277794629736775" lon="8.980807633939191"><ele>69.0</ele><time>2026-04-06T16:40:40.999Z</time></trkpt><trkpt lat="45.27781878776532" lon="8.980680656754958"><ele>69.0</ele><time>2026-04-06T16:40:43.999Z</time></trkpt><trkpt lat="45.27783921186515" lon="8.980571149024092"><ele>69.0</ele><time>2026-04-06T16:40:46.999Z</time></trkpt><trkpt lat="45.27786631020319" lon="8.98045109246337"><ele>69.0</ele><time>2026-04-06T16:40:49.999Z</time></trkpt><trkpt lat="45.27788113789" lon="8.980360869227148"><ele>69.0</ele><time>2026-04-06T16:40:51.999Z</time></trkpt><trkpt lat="45.27790588815528" lon="8.980253177276028"><ele>69.0</ele><time>2026-04-06T16:40:54.999Z</time></trkpt><trkpt lat="45.27793575451919" lon="8.980159740183948"><ele>69.0</ele><time>2026-04-06T16:40:57.999Z</time></trkpt><trkpt lat="45.277962522836276" lon="8.980054139504256"><ele>69.0</ele><time>2026-04-06T16:41:00.999Z</time></trkpt><trkpt lat="45.277988533001924" lon="8.979942473425044"><ele>69.0</ele><time>2026-04-06T16:41:03.999Z</time></trkpt><trkpt lat="45.27801217640322" lon="8.97984057459586"><ele>69.0</ele><time>2026-04-06T16:41:06.999Z</time></trkpt><trkpt lat="45.27803502799444" lon="8.979744208951809"><ele>68.5</ele><time>2026-04-06T16:41:09.999Z</time></trkpt><trkpt lat="45.27805462605898" lon="8.979644939656476"><ele>68.0</ele><time>2026-04-06T16:41:12.999Z</time></trkpt><trkpt lat="45.278087231642964" lon="8.979530389176237"><ele>67.5</ele><time>2026-04-06T16:41:15.999Z</time></trkpt><trkpt lat="45.27811868069797" lon="8.97941545499367"><ele>67.0</ele><time>2026-04-06T16:41:18.999Z</time></trkpt><trkpt lat="45.27813749529308" lon="8.979308727084831"><ele>66.5</ele><time>2026-04-06T16:41:21.999Z</time></trkpt><trkpt lat="45.278155908287836" lon="8.979184802334334"><ele>66.0</ele><time>2026-04-06T16:41:24.999Z</time></trkpt><trkpt lat="45.278210996426864" lon="8.979119493799205"><ele>67.33333333333333</ele><time>2026-04-06T16:41:27.999Z</time></trkpt><trkpt lat="45.278272138031625" lon="8.979078198864785"><ele>68.66666666666667</ele><time>2026-04-06T16:41:31Z</time></trkpt><trkpt lat="45.278350235299364" lon="8.979036351131352"><ele>70.0</ele><time>2026-04-06T16:41:35Z</time></trkpt><trkpt lat="45.27841540372894" lon="8.978982683979957"><ele>71.33333333333334</ele><time>2026-04-06T16:41:39Z</time></trkpt><trkpt lat="45.27848183079992" lon="8.978937012833665"><ele>72.66666666666667</ele><time>2026-04-06T16:41:43Z</time></trkpt><trkpt lat="45.27855219112736" lon="8.978881524746575"><ele>74.0</ele><time>2026-04-06T16:41:47Z</time></trkpt><trkpt lat="45.27861673795915" lon="8.978818408826456"><ele>74.0</ele><time>2026-04-06T16:41:50Z</time></trkpt><trkpt lat="45.27867737681406" lon="8.978770674506567"><ele>74.0</ele><time>2026-04-06T16:41:53Z</time></trkpt><trkpt lat="45.278747943905756" lon="8.978734424488485"><ele>74.0</ele><time>2026-04-06T16:41:56Z</time></trkpt><trkpt lat="45.278805805900234" lon="8.978696460766704"><ele>74.0</ele><time>2026-04-06T16:41:59Z</time></trkpt><trkpt lat="45.27886522490071" lon="8.978644402030312"><ele>74.0</ele><time>2026-04-06T16:42:03Z</time></trkpt><trkpt lat="45.27892610731433" lon="8.978612987318774"><ele>74.0</ele><time>2026-04-06T16:42:06Z</time></trkpt><trkpt lat="45.27901047018791" lon="8.978573792657432"><ele>74.0</ele><time>2026-04-06T16:42:09Z</time></trkpt><trkpt lat="45.279092005447865" lon="8.978524846357676"><ele>74.0</ele><time>2026-04-06T16:42:12Z</time></trkpt><trkpt lat="45.27916297545493" lon="8.978489174174738"><ele>74.0</ele><time>2026-04-06T16:42:15.999Z</time></trkpt><trkpt lat="45.27921830337174" lon="8.978443091154277"><ele>74.0</ele><time>2026-04-06T16:42:18.999Z</time></trkpt><trkpt lat="45.279261542116274" lon="8.978370248461168"><ele>74.0</ele><time>2026-04-06T16:42:21.999Z</time></trkpt><trkpt lat="45.27930059792967" lon="8.978300001063955"><ele>74.0</ele><time>2026-04-06T16:42:24.999Z</time></trkpt><trkpt lat="45.279322899371415" lon="8.97820730658752"><ele>74.0</ele><time>2026-04-06T16:42:27.999Z</time></trkpt><trkpt lat="45.27931713065485" lon="8.97811618864949"><ele>74.0</ele><time>2026-04-06T16:42:30.999Z</time></trkpt><trkpt lat="45.2793209932557" lon="8.978017613524425"><ele>74.0</ele><time>2026-04-06T16:42:33.999Z</time></trkpt><trkpt lat="45.27933667485413" lon="8.977916201508368"><ele>74.0</ele><time>2026-04-06T16:42:36.999Z</time></trkpt><trkpt lat="45.279353748101535" lon="8.977822872287591"><ele>74.0</ele><time>2026-04-06T16:42:39.999Z</time></trkpt><trkpt lat="45.27938121282014" lon="8.97772658972184"><ele>74.0</ele><time>2026-04-06T16:42:42.999Z</time></trkpt><trkpt lat="45.27943238257286" lon="8.977661406064017"><ele>74.0</ele><time>2026-04-06T16:42:45.999Z</time></trkpt><trkpt lat="45.27949169440736" lon="8.977611758353154"><ele>74.0</ele><time>2026-04-06T16:42:48.999Z</time></trkpt><trkpt lat="45.27955605069755" lon="8.977576591802375"><ele>74.0</ele><time>2026-04-06T16:42:51.999Z</time></trkpt><trkpt lat="45.279636029929584" lon="8.977534677358092"><ele>73.66666666666667</ele><time>2026-04-06T16:42:54.999Z</time></trkpt><trkpt lat="45.27969837462118" lon="8.977455984673753"><ele>73.33333333333334</ele><time>2026-04-06T16:42:57.999Z</time></trkpt><trkpt lat="45.27976656078971" lon="8.977375310945408"><ele>73.0</ele><time>2026-04-06T16:43:00.999Z</time></trkpt><trkpt lat="45.27983783156005" lon="8.97732573814567"><ele>72.66666666666667</ele><time>2026-04-06T16:43:03.999Z</time></trkpt><trkpt lat="45.279903471835674" lon="8.977276216998558"><ele>72.33333333333333</ele><time>2026-04-06T16:43:06.999Z</time></trkpt><trkpt lat="45.27996935715895" lon="8.977243086958303"><ele>72.0</ele><time>2026-04-06T16:43:09.999Z</time></trkpt><trkpt lat="45.28004277607351" lon="8.977179307156641"><ele>73.33333333333333</ele><time>2026-04-06T16:43:12.999Z</time></trkpt><trkpt lat="45.28010052842164" lon="8.977133945929094"><ele>74.66666666666667</ele><time>2026-04-06T16:43:15.999Z</time></trkpt><trkpt lat="45.28013625428134" lon="8.977038451519142"><ele>76.0</ele><time>2026-04-06T16:43:18.999Z</time></trkpt><trkpt lat="45.28015545265454" lon="8.976923809158288"><ele>77.33333333333334</ele><time>2026-04-06T16:43:21.999Z</time></trkpt><trkpt lat="45.2801533299119" lon="8.976813326667305"><ele>78.66666666666667</ele><time>2026-04-06T16:43:24.999Z</time></trkpt><trkpt lat="45.28012541572583" lon="8.976704958233212"><ele>80.0</ele><time>2026-04-06T16:43:27.999Z</time></trkpt><trkpt lat="45.280106659657115" lon="8.976592573486203"><ele>80.16666666666667</ele><time>2026-04-06T16:43:30.999Z</time></trkpt><trkpt lat="45.28008979337669" lon="8.976498790231169"><ele>80.33333333333334</ele><time>2026-04-06T16:43:33.998Z</time></trkpt><trkpt lat="45.280047667829436" lon="8.976402290068153"><ele>80.5</ele><time>2026-04-06T16:43:37Z</time></trkpt><trkpt lat="45.27998147906098" lon="8.976347086460994"><ele>80.66666666666667</ele><time>2026-04-06T16:43:40Z</time></trkpt><trkpt lat="45.27991503116645" lon="8.976326041262563"><ele>80.83333333333333</ele><time>2026-04-06T16:43:43Z</time></trkpt><trkpt lat="45.279837840979425" lon="8.97626496761591"><ele>81.0</ele><time>2026-04-06T16:43:46Z</time></trkpt><trkpt lat="45.279781438658524" lon="8.976191138673114"><ele>79.71428571428572</ele><time>2026-04-06T16:43:49Z</time></trkpt><trkpt lat="45.27973717240074" lon="8.976117068703944"><ele>78.42857142857143</ele><time>2026-04-06T16:43:52Z</time></trkpt><trkpt lat="45.279702166754205" lon="8.976015289152008"><ele>77.14285714285714</ele><time>2026-04-06T16:43:55Z</time></trkpt><trkpt lat="45.27967271407122" lon="8.975932847016226"><ele>75.85714285714286</ele><time>2026-04-06T16:43:58Z</time></trkpt><trkpt lat="45.279658421095355" lon="8.975830868513224"><ele>74.57142857142857</ele><time>2026-04-06T16:44:01Z</time></trkpt><trkpt lat="45.27968616351326" lon="8.97573631642517"><ele>73.28571428571429</ele><time>2026-04-06T16:44:04Z</time></trkpt><trkpt lat="45.27971834631326" lon="8.975626832556966"><ele>72.0</ele><time>2026-04-06T16:44:08Z</time></trkpt><trkpt lat="45.27974093675657" lon="8.97553807845473"><ele>72.28571428571429</ele><time>2026-04-06T16:44:11Z</time></trkpt><trkpt lat="45.27976794241634" lon="8.975437527626479"><ele>72.57142857142857</ele><time>2026-04-06T16:44:14Z</time></trkpt><trkpt lat="45.279798587583535" lon="8.975339599891996"><ele>72.85714285714286</ele><time>2026-04-06T16:44:17Z</time></trkpt><trkpt lat="45.27982659375202" lon="8.975258095142086"><ele>73.14285714285714</ele><time>2026-04-06T16:44:20Z</time></trkpt><trkpt lat="45.27985698471936" lon="8.975152696073465"><ele>73.42857142857143</ele><time>2026-04-06T16:44:24Z</time></trkpt><trkpt lat="45.27986910416473" lon="8.97503680359551"><ele>73.71428571428572</ele><time>2026-04-06T16:44:28Z</time></trkpt><trkpt lat="45.27988961150281" lon="8.974951665938022"><ele>74.0</ele><time>2026-04-06T16:44:31Z</time></trkpt><trkpt lat="45.2799067733016" lon="8.974860434657955"><ele>74.0</ele><time>2026-04-06T16:44:34Z</time></trkpt><trkpt lat="45.27992086302534" lon="8.974770469789755"><ele>74.0</ele><time>2026-04-06T16:44:37Z</time></trkpt><trkpt lat="45.279920873241686" lon="8.974673481904189"><ele>74.0</ele><time>2026-04-06T16:44:41Z</time></trkpt><trkpt lat="45.27996983880525" lon="8.974595491790396"><ele>74.0</ele><time>2026-04-06T16:44:45.999Z</time></trkpt><trkpt lat="45.280040157061094" lon="8.974608346059377"><ele>74.0</ele><time>2026-04-06T16:44:49.999Z</time></trkpt><trkpt lat="45.28008664741509" lon="8.97453289847602"><ele>74.0</ele><time>2026-04-06T16:44:54.999Z</time></trkpt><trkpt lat="45.28015025116316" lon="8.97450458214606"><ele>74.0</ele><time>2026-04-06T16:44:57.999Z</time></trkpt><trkpt lat="45.280166946778024" lon="8.974397638499815"><ele>74.0</ele><time>2026-04-06T16:45:01.999Z</time></trkpt><trkpt lat="45.28014691902412" lon="8.974300719130264"><ele>74.0</ele><time>2026-04-06T16:45:04.999Z</time></trkpt><trkpt lat="45.280139876218904" lon="8.974183889993173"><ele>74.0</ele><time>2026-04-06T16:45:08.999Z</time></trkpt><trkpt lat="45.280142426875784" lon="8.974093414708623"><ele>74.0</ele><time>2026-04-06T16:45:11.999Z</time></trkpt><trkpt lat="45.28016330690482" lon="8.973994590283095"><ele>74.0</ele><time>2026-04-06T16:45:14.999Z</time></trkpt><trkpt lat="45.28018241492436" lon="8.973907269320415"><ele>74.0</ele><time>2026-04-06T16:45:17.999Z</time></trkpt><trkpt lat="45.28019722904582" lon="8.97379556983474"><ele>74.0</ele><time>2026-04-06T16:45:21.999Z</time></trkpt><trkpt lat="45.280155944707914" lon="8.973726035541231"><ele>72.0</ele><time>2026-04-06T16:45:24.999Z</time></trkpt></trkseg></trk></gpx>